<?xml version="1.0" encoding="UTF-8"?>
<gpx version="1.1" creator="https://www.youtrack.es" xsi:schemaLocation="http://www.topografix.com/GPX/1/1 http://www.topografix.com/GPX/1/1/gpx.xsd http://www.garmin.com/xmlschemas/GpxExtensions/v3 http://www.garmin.com/xmlschemas/GpxExtensionsv3.xsd http://www.garmin.com/xmlschemas/TrackPointExtension/v1 http://www.garmin.com/xmlschemas/TrackPointExtensionv1.xsd" xmlns:gpxtpx="http://www.garmin.com/xmlschemas/TrackPointExtension/v1" xmlns:gpxx="http://www.garmin.com/xmlschemas/GpxExtensions/v3" xmlns:xsi="http://www.w3.org/2001/XMLSchema-instance">
  <metadata>
    <link href="https://www.youtrack.es">
      <text>YouTrack.es</text>
    </link>
    <time>2026-05-08T10:35:08Z</time>
  </metadata>
  <trk>
    <src>https://www.youtrack.es</src>
    <link href="https://www.youtrack.es/ruta/31151-ruta-montserrat">
      <text>YouTrack.es</text>
    </link>
    <trkseg>
      <trkpt lat="41.609675" lon="1.768002">
        <ele>721.694</ele>
        <time>2016-01-31T09:25:59Z</time>
      </trkpt>
      <trkpt lat="41.609718" lon="1.768090">
        <ele>722.657</ele>
        <time>2016-01-31T09:26:06Z</time>
      </trkpt>
      <trkpt lat="41.609733" lon="1.768205">
        <ele>723.122</ele>
        <time>2016-01-31T09:26:13Z</time>
      </trkpt>
      <trkpt lat="41.609763" lon="1.768298">
        <ele>723.908</ele>
        <time>2016-01-31T09:26:20Z</time>
      </trkpt>
      <trkpt lat="41.609793" lon="1.768397">
        <ele>725.420</ele>
        <time>2016-01-31T09:26:27Z</time>
      </trkpt>
      <trkpt lat="41.609823" lon="1.768509">
        <ele>726.451</ele>
        <time>2016-01-31T09:26:34Z</time>
      </trkpt>
      <trkpt lat="41.609823" lon="1.768620">
        <ele>728.120</ele>
        <time>2016-01-31T09:26:42Z</time>
      </trkpt>
      <trkpt lat="41.609850" lon="1.768720">
        <ele>729.832</ele>
        <time>2016-01-31T09:26:50Z</time>
      </trkpt>
      <trkpt lat="41.609897" lon="1.768810">
        <ele>731.492</ele>
        <time>2016-01-31T09:26:57Z</time>
      </trkpt>
      <trkpt lat="41.609960" lon="1.768883">
        <ele>733.081</ele>
        <time>2016-01-31T09:27:04Z</time>
      </trkpt>
      <trkpt lat="41.610028" lon="1.768962">
        <ele>734.537</ele>
        <time>2016-01-31T09:27:12Z</time>
      </trkpt>
      <trkpt lat="41.610104" lon="1.769013">
        <ele>735.617</ele>
        <time>2016-01-31T09:27:20Z</time>
      </trkpt>
      <trkpt lat="41.610155" lon="1.769099">
        <ele>737.338</ele>
        <time>2016-01-31T09:27:28Z</time>
      </trkpt>
      <trkpt lat="41.610176" lon="1.769212">
        <ele>739.170</ele>
        <time>2016-01-31T09:27:37Z</time>
      </trkpt>
      <trkpt lat="41.610193" lon="1.769331">
        <ele>741.117</ele>
        <time>2016-01-31T09:27:46Z</time>
      </trkpt>
      <trkpt lat="41.610228" lon="1.769434">
        <ele>743.408</ele>
        <time>2016-01-31T09:27:54Z</time>
      </trkpt>
      <trkpt lat="41.610236" lon="1.769542">
        <ele>745.794</ele>
        <time>2016-01-31T09:28:05Z</time>
      </trkpt>
      <trkpt lat="41.610245" lon="1.769657">
        <ele>746.835</ele>
        <time>2016-01-31T09:28:12Z</time>
      </trkpt>
      <trkpt lat="41.610259" lon="1.769774">
        <ele>748.414</ele>
        <time>2016-01-31T09:28:19Z</time>
      </trkpt>
      <trkpt lat="41.610271" lon="1.769888">
        <ele>749.996</ele>
        <time>2016-01-31T09:28:26Z</time>
      </trkpt>
      <trkpt lat="41.610278" lon="1.770002">
        <ele>751.326</ele>
        <time>2016-01-31T09:28:33Z</time>
      </trkpt>
      <trkpt lat="41.610300" lon="1.770100">
        <ele>752.715</ele>
        <time>2016-01-31T09:28:40Z</time>
      </trkpt>
      <trkpt lat="41.610321" lon="1.770209">
        <ele>753.831</ele>
        <time>2016-01-31T09:28:47Z</time>
      </trkpt>
      <trkpt lat="41.610332" lon="1.770315">
        <ele>754.151</ele>
        <time>2016-01-31T09:28:54Z</time>
      </trkpt>
      <trkpt lat="41.610343" lon="1.770425">
        <ele>754.617</ele>
        <time>2016-01-31T09:29:01Z</time>
      </trkpt>
      <trkpt lat="41.610357" lon="1.770536">
        <ele>756.187</ele>
        <time>2016-01-31T09:29:09Z</time>
      </trkpt>
      <trkpt lat="41.610392" lon="1.770639">
        <ele>758.015</ele>
        <time>2016-01-31T09:29:17Z</time>
      </trkpt>
      <trkpt lat="41.610459" lon="1.770711">
        <ele>759.308</ele>
        <time>2016-01-31T09:29:24Z</time>
      </trkpt>
      <trkpt lat="41.610504" lon="1.770795">
        <ele>760.442</ele>
        <time>2016-01-31T09:29:30Z</time>
      </trkpt>
      <trkpt lat="41.610546" lon="1.770895">
        <ele>761.333</ele>
        <time>2016-01-31T09:29:37Z</time>
      </trkpt>
      <trkpt lat="41.610588" lon="1.770987">
        <ele>762.582</ele>
        <time>2016-01-31T09:29:43Z</time>
      </trkpt>
      <trkpt lat="41.610614" lon="1.771083">
        <ele>764.434</ele>
        <time>2016-01-31T09:29:51Z</time>
      </trkpt>
      <trkpt lat="41.610622" lon="1.771196">
        <ele>765.934</ele>
        <time>2016-01-31T09:29:59Z</time>
      </trkpt>
      <trkpt lat="41.610620" lon="1.771310">
        <ele>768.843</ele>
        <time>2016-01-31T09:30:13Z</time>
      </trkpt>
      <trkpt lat="41.610591" lon="1.771415">
        <ele>770.499</ele>
        <time>2016-01-31T09:30:22Z</time>
      </trkpt>
      <trkpt lat="41.610559" lon="1.771509">
        <ele>771.749</ele>
        <time>2016-01-31T09:30:29Z</time>
      </trkpt>
      <trkpt lat="41.610512" lon="1.771597">
        <ele>772.635</ele>
        <time>2016-01-31T09:30:35Z</time>
      </trkpt>
      <trkpt lat="41.610458" lon="1.771684">
        <ele>774.086</ele>
        <time>2016-01-31T09:30:42Z</time>
      </trkpt>
      <trkpt lat="41.610392" lon="1.771758">
        <ele>775.014</ele>
        <time>2016-01-31T09:30:49Z</time>
      </trkpt>
      <trkpt lat="41.610330" lon="1.771832">
        <ele>776.708</ele>
        <time>2016-01-31T09:30:57Z</time>
      </trkpt>
      <trkpt lat="41.610298" lon="1.771932">
        <ele>778.594</ele>
        <time>2016-01-31T09:31:06Z</time>
      </trkpt>
      <trkpt lat="41.610300" lon="1.772039">
        <ele>779.915</ele>
        <time>2016-01-31T09:31:13Z</time>
      </trkpt>
      <trkpt lat="41.610314" lon="1.772144">
        <ele>781.524</ele>
        <time>2016-01-31T09:31:21Z</time>
      </trkpt>
      <trkpt lat="41.610347" lon="1.772253">
        <ele>782.946</ele>
        <time>2016-01-31T09:31:29Z</time>
      </trkpt>
      <trkpt lat="41.610391" lon="1.772342">
        <ele>783.586</ele>
        <time>2016-01-31T09:31:36Z</time>
      </trkpt>
      <trkpt lat="41.610414" lon="1.772457">
        <ele>784.255</ele>
        <time>2016-01-31T09:31:45Z</time>
      </trkpt>
      <trkpt lat="41.610347" lon="1.772527">
        <ele>786.261</ele>
        <time>2016-01-31T09:31:54Z</time>
      </trkpt>
      <trkpt lat="41.610271" lon="1.772570">
        <ele>786.941</ele>
        <time>2016-01-31T09:32:01Z</time>
      </trkpt>
      <trkpt lat="41.610203" lon="1.772631">
        <ele>787.766</ele>
        <time>2016-01-31T09:32:08Z</time>
      </trkpt>
      <trkpt lat="41.610170" lon="1.772738">
        <ele>788.629</ele>
        <time>2016-01-31T09:32:16Z</time>
      </trkpt>
      <trkpt lat="41.610129" lon="1.772842">
        <ele>789.921</ele>
        <time>2016-01-31T09:32:25Z</time>
      </trkpt>
      <trkpt lat="41.610091" lon="1.772947">
        <ele>790.908</ele>
        <time>2016-01-31T09:32:33Z</time>
      </trkpt>
      <trkpt lat="41.610068" lon="1.773044">
        <ele>791.777</ele>
        <time>2016-01-31T09:32:40Z</time>
      </trkpt>
      <trkpt lat="41.610033" lon="1.773142">
        <ele>792.878</ele>
        <time>2016-01-31T09:32:46Z</time>
      </trkpt>
      <trkpt lat="41.609995" lon="1.773248">
        <ele>793.737</ele>
        <time>2016-01-31T09:32:53Z</time>
      </trkpt>
      <trkpt lat="41.609943" lon="1.773327">
        <ele>795.289</ele>
        <time>2016-01-31T09:33:00Z</time>
      </trkpt>
      <trkpt lat="41.609904" lon="1.773420">
        <ele>796.679</ele>
        <time>2016-01-31T09:33:07Z</time>
      </trkpt>
      <trkpt lat="41.609864" lon="1.773516">
        <ele>797.838</ele>
        <time>2016-01-31T09:33:14Z</time>
      </trkpt>
      <trkpt lat="41.609805" lon="1.773590">
        <ele>799.034</ele>
        <time>2016-01-31T09:33:20Z</time>
      </trkpt>
      <trkpt lat="41.609743" lon="1.773658">
        <ele>800.324</ele>
        <time>2016-01-31T09:33:27Z</time>
      </trkpt>
      <trkpt lat="41.609716" lon="1.773764">
        <ele>801.448</ele>
        <time>2016-01-31T09:33:34Z</time>
      </trkpt>
      <trkpt lat="41.609720" lon="1.773872">
        <ele>802.261</ele>
        <time>2016-01-31T09:33:40Z</time>
      </trkpt>
      <trkpt lat="41.609713" lon="1.773979">
        <ele>803.117</ele>
        <time>2016-01-31T09:33:46Z</time>
      </trkpt>
      <trkpt lat="41.609671" lon="1.774070">
        <ele>803.608</ele>
        <time>2016-01-31T09:33:52Z</time>
      </trkpt>
      <trkpt lat="41.609614" lon="1.774142">
        <ele>803.915</ele>
        <time>2016-01-31T09:33:58Z</time>
      </trkpt>
      <trkpt lat="41.609556" lon="1.774220">
        <ele>804.256</ele>
        <time>2016-01-31T09:34:05Z</time>
      </trkpt>
      <trkpt lat="41.609503" lon="1.774294">
        <ele>804.645</ele>
        <time>2016-01-31T09:34:11Z</time>
      </trkpt>
      <trkpt lat="41.609434" lon="1.774362">
        <ele>805.517</ele>
        <time>2016-01-31T09:34:17Z</time>
      </trkpt>
      <trkpt lat="41.609364" lon="1.774427">
        <ele>806.077</ele>
        <time>2016-01-31T09:34:23Z</time>
      </trkpt>
      <trkpt lat="41.609298" lon="1.774502">
        <ele>806.356</ele>
        <time>2016-01-31T09:34:30Z</time>
      </trkpt>
      <trkpt lat="41.609244" lon="1.774594">
        <ele>807.722</ele>
        <time>2016-01-31T09:34:41Z</time>
      </trkpt>
      <trkpt lat="41.609167" lon="1.774633">
        <ele>808.672</ele>
        <time>2016-01-31T09:34:57Z</time>
      </trkpt>
      <trkpt lat="41.609107" lon="1.774714">
        <ele>809.271</ele>
        <time>2016-01-31T09:35:04Z</time>
      </trkpt>
      <trkpt lat="41.609073" lon="1.774811">
        <ele>809.441</ele>
        <time>2016-01-31T09:35:09Z</time>
      </trkpt>
      <trkpt lat="41.609048" lon="1.774907">
        <ele>810.115</ele>
        <time>2016-01-31T09:35:15Z</time>
      </trkpt>
      <trkpt lat="41.609053" lon="1.775005">
        <ele>811.108</ele>
        <time>2016-01-31T09:35:21Z</time>
      </trkpt>
      <trkpt lat="41.609043" lon="1.775109">
        <ele>812.358</ele>
        <time>2016-01-31T09:35:27Z</time>
      </trkpt>
      <trkpt lat="41.608978" lon="1.775182">
        <ele>812.779</ele>
        <time>2016-01-31T09:35:32Z</time>
      </trkpt>
      <trkpt lat="41.608897" lon="1.775232">
        <ele>813.358</ele>
        <time>2016-01-31T09:35:38Z</time>
      </trkpt>
      <trkpt lat="41.608845" lon="1.775310">
        <ele>813.890</ele>
        <time>2016-01-31T09:35:44Z</time>
      </trkpt>
      <trkpt lat="41.608810" lon="1.775420">
        <ele>814.120</ele>
        <time>2016-01-31T09:35:50Z</time>
      </trkpt>
      <trkpt lat="41.608796" lon="1.775532">
        <ele>813.969</ele>
        <time>2016-01-31T09:35:56Z</time>
      </trkpt>
      <trkpt lat="41.608805" lon="1.775651">
        <ele>813.795</ele>
        <time>2016-01-31T09:36:02Z</time>
      </trkpt>
      <trkpt lat="41.608831" lon="1.775763">
        <ele>813.915</ele>
        <time>2016-01-31T09:36:08Z</time>
      </trkpt>
      <trkpt lat="41.608852" lon="1.775874">
        <ele>814.031</ele>
        <time>2016-01-31T09:36:13Z</time>
      </trkpt>
      <trkpt lat="41.608873" lon="1.775983">
        <ele>813.761</ele>
        <time>2016-01-31T09:36:19Z</time>
      </trkpt>
      <trkpt lat="41.608890" lon="1.776096">
        <ele>813.407</ele>
        <time>2016-01-31T09:36:26Z</time>
      </trkpt>
      <trkpt lat="41.608912" lon="1.776212">
        <ele>813.108</ele>
        <time>2016-01-31T09:36:33Z</time>
      </trkpt>
      <trkpt lat="41.608942" lon="1.776319">
        <ele>812.554</ele>
        <time>2016-01-31T09:36:39Z</time>
      </trkpt>
      <trkpt lat="41.608971" lon="1.776419">
        <ele>812.135</ele>
        <time>2016-01-31T09:36:45Z</time>
      </trkpt>
      <trkpt lat="41.609011" lon="1.776509">
        <ele>812.244</ele>
        <time>2016-01-31T09:36:52Z</time>
      </trkpt>
      <trkpt lat="41.609068" lon="1.776587">
        <ele>812.876</ele>
        <time>2016-01-31T09:36:58Z</time>
      </trkpt>
      <trkpt lat="41.609114" lon="1.776672">
        <ele>813.366</ele>
        <time>2016-01-31T09:37:04Z</time>
      </trkpt>
      <trkpt lat="41.609179" lon="1.776755">
        <ele>813.495</ele>
        <time>2016-01-31T09:37:11Z</time>
      </trkpt>
      <trkpt lat="41.609225" lon="1.776850">
        <ele>813.571</ele>
        <time>2016-01-31T09:37:17Z</time>
      </trkpt>
      <trkpt lat="41.609254" lon="1.776947">
        <ele>813.731</ele>
        <time>2016-01-31T09:37:23Z</time>
      </trkpt>
      <trkpt lat="41.609276" lon="1.777045">
        <ele>813.787</ele>
        <time>2016-01-31T09:37:29Z</time>
      </trkpt>
      <trkpt lat="41.609289" lon="1.777161">
        <ele>814.142</ele>
        <time>2016-01-31T09:37:36Z</time>
      </trkpt>
      <trkpt lat="41.609294" lon="1.777281">
        <ele>814.126</ele>
        <time>2016-01-31T09:37:42Z</time>
      </trkpt>
      <trkpt lat="41.609309" lon="1.777388">
        <ele>814.008</ele>
        <time>2016-01-31T09:37:48Z</time>
      </trkpt>
      <trkpt lat="41.609300" lon="1.777499">
        <ele>813.229</ele>
        <time>2016-01-31T09:37:54Z</time>
      </trkpt>
      <trkpt lat="41.609320" lon="1.777605">
        <ele>811.910</ele>
        <time>2016-01-31T09:38:00Z</time>
      </trkpt>
      <trkpt lat="41.609345" lon="1.777705">
        <ele>810.859</ele>
        <time>2016-01-31T09:38:06Z</time>
      </trkpt>
      <trkpt lat="41.609364" lon="1.777807">
        <ele>810.221</ele>
        <time>2016-01-31T09:38:12Z</time>
      </trkpt>
      <trkpt lat="41.609395" lon="1.777915">
        <ele>809.541</ele>
        <time>2016-01-31T09:38:20Z</time>
      </trkpt>
      <trkpt lat="41.609403" lon="1.778027">
        <ele>809.010</ele>
        <time>2016-01-31T09:38:26Z</time>
      </trkpt>
      <trkpt lat="41.609393" lon="1.778133">
        <ele>808.836</ele>
        <time>2016-01-31T09:38:32Z</time>
      </trkpt>
      <trkpt lat="41.609335" lon="1.778210">
        <ele>808.326</ele>
        <time>2016-01-31T09:38:41Z</time>
      </trkpt>
      <trkpt lat="41.609285" lon="1.778305">
        <ele>808.251</ele>
        <time>2016-01-31T09:38:48Z</time>
      </trkpt>
      <trkpt lat="41.609237" lon="1.778381">
        <ele>808.201</ele>
        <time>2016-01-31T09:38:53Z</time>
      </trkpt>
      <trkpt lat="41.609204" lon="1.778482">
        <ele>807.711</ele>
        <time>2016-01-31T09:38:59Z</time>
      </trkpt>
      <trkpt lat="41.609189" lon="1.778597">
        <ele>807.508</ele>
        <time>2016-01-31T09:39:06Z</time>
      </trkpt>
      <trkpt lat="41.609146" lon="1.778681">
        <ele>807.556</ele>
        <time>2016-01-31T09:39:13Z</time>
      </trkpt>
      <trkpt lat="41.609087" lon="1.778761">
        <ele>806.867</ele>
        <time>2016-01-31T09:39:19Z</time>
      </trkpt>
      <trkpt lat="41.609035" lon="1.778852">
        <ele>806.396</ele>
        <time>2016-01-31T09:39:26Z</time>
      </trkpt>
      <trkpt lat="41.608992" lon="1.778946">
        <ele>806.518</ele>
        <time>2016-01-31T09:39:32Z</time>
      </trkpt>
      <trkpt lat="41.608975" lon="1.779059">
        <ele>807.248</ele>
        <time>2016-01-31T09:39:39Z</time>
      </trkpt>
      <trkpt lat="41.608890" lon="1.779089">
        <ele>808.167</ele>
        <time>2016-01-31T09:39:51Z</time>
      </trkpt>
      <trkpt lat="41.608816" lon="1.779125">
        <ele>809.093</ele>
        <time>2016-01-31T09:40:01Z</time>
      </trkpt>
      <trkpt lat="41.608745" lon="1.779184">
        <ele>809.243</ele>
        <time>2016-01-31T09:40:09Z</time>
      </trkpt>
      <trkpt lat="41.608655" lon="1.779186">
        <ele>810.988</ele>
        <time>2016-01-31T09:40:17Z</time>
      </trkpt>
      <trkpt lat="41.608567" lon="1.779206">
        <ele>812.324</ele>
        <time>2016-01-31T09:40:24Z</time>
      </trkpt>
      <trkpt lat="41.608487" lon="1.779251">
        <ele>814.426</ele>
        <time>2016-01-31T09:40:34Z</time>
      </trkpt>
      <trkpt lat="41.608411" lon="1.779312">
        <ele>816.008</ele>
        <time>2016-01-31T09:40:43Z</time>
      </trkpt>
      <trkpt lat="41.608336" lon="1.779379">
        <ele>817.719</ele>
        <time>2016-01-31T09:40:51Z</time>
      </trkpt>
      <trkpt lat="41.608264" lon="1.779448">
        <ele>819.650</ele>
        <time>2016-01-31T09:41:00Z</time>
      </trkpt>
      <trkpt lat="41.608193" lon="1.779502">
        <ele>823.489</ele>
        <time>2016-01-31T09:41:16Z</time>
      </trkpt>
      <trkpt lat="41.608118" lon="1.779552">
        <ele>824.111</ele>
        <time>2016-01-31T09:41:19Z</time>
      </trkpt>
      <trkpt lat="41.608040" lon="1.779580">
        <ele>825.071</ele>
        <time>2016-01-31T09:41:24Z</time>
      </trkpt>
      <trkpt lat="41.607965" lon="1.779617">
        <ele>827.320</ele>
        <time>2016-01-31T09:41:32Z</time>
      </trkpt>
      <trkpt lat="41.607888" lon="1.779679">
        <ele>829.256</ele>
        <time>2016-01-31T09:41:44Z</time>
      </trkpt>
      <trkpt lat="41.607807" lon="1.779723">
        <ele>831.946</ele>
        <time>2016-01-31T09:41:55Z</time>
      </trkpt>
      <trkpt lat="41.607723" lon="1.779713">
        <ele>834.556</ele>
        <time>2016-01-31T09:42:08Z</time>
      </trkpt>
      <trkpt lat="41.607636" lon="1.779708">
        <ele>836.459</ele>
        <time>2016-01-31T09:42:16Z</time>
      </trkpt>
      <trkpt lat="41.607549" lon="1.779687">
        <ele>837.814</ele>
        <time>2016-01-31T09:42:25Z</time>
      </trkpt>
      <trkpt lat="41.607463" lon="1.779670">
        <ele>839.208</ele>
        <time>2016-01-31T09:42:33Z</time>
      </trkpt>
      <trkpt lat="41.607377" lon="1.779665">
        <ele>839.496</ele>
        <time>2016-01-31T09:42:39Z</time>
      </trkpt>
      <trkpt lat="41.607309" lon="1.779708">
        <ele>839.967</ele>
        <time>2016-01-31T09:42:46Z</time>
      </trkpt>
      <trkpt lat="41.607233" lon="1.779752">
        <ele>840.456</ele>
        <time>2016-01-31T09:42:52Z</time>
      </trkpt>
      <trkpt lat="41.607157" lon="1.779785">
        <ele>840.798</ele>
        <time>2016-01-31T09:43:01Z</time>
      </trkpt>
      <trkpt lat="41.607070" lon="1.779779">
        <ele>840.638</ele>
        <time>2016-01-31T09:43:08Z</time>
      </trkpt>
      <trkpt lat="41.607002" lon="1.779814">
        <ele>840.697</ele>
        <time>2016-01-31T09:43:13Z</time>
      </trkpt>
      <trkpt lat="41.606927" lon="1.779876">
        <ele>840.773</ele>
        <time>2016-01-31T09:43:20Z</time>
      </trkpt>
      <trkpt lat="41.606848" lon="1.779929">
        <ele>841.843</ele>
        <time>2016-01-31T09:43:29Z</time>
      </trkpt>
      <trkpt lat="41.606764" lon="1.779947">
        <ele>842.549</ele>
        <time>2016-01-31T09:43:38Z</time>
      </trkpt>
      <trkpt lat="41.606690" lon="1.779972">
        <ele>843.202</ele>
        <time>2016-01-31T09:43:43Z</time>
      </trkpt>
      <trkpt lat="41.606610" lon="1.779929">
        <ele>843.522</ele>
        <time>2016-01-31T09:43:51Z</time>
      </trkpt>
      <trkpt lat="41.606537" lon="1.779881">
        <ele>843.208</ele>
        <time>2016-01-31T09:43:59Z</time>
      </trkpt>
      <trkpt lat="41.606452" lon="1.779847">
        <ele>844.245</ele>
        <time>2016-01-31T09:44:06Z</time>
      </trkpt>
      <trkpt lat="41.606389" lon="1.779775">
        <ele>846.426</ele>
        <time>2016-01-31T09:44:13Z</time>
      </trkpt>
      <trkpt lat="41.606299" lon="1.779775">
        <ele>848.015</ele>
        <time>2016-01-31T09:44:19Z</time>
      </trkpt>
      <trkpt lat="41.605806" lon="1.780570">
        <ele>864.527</ele>
        <time>2016-01-31T09:46:00Z</time>
      </trkpt>
      <trkpt lat="41.605719" lon="1.780592">
        <ele>847.377</ele>
        <time>2016-01-31T09:46:15Z</time>
      </trkpt>
      <trkpt lat="41.605644" lon="1.780656">
        <ele>850.746</ele>
        <time>2016-01-31T09:46:40Z</time>
      </trkpt>
      <trkpt lat="41.605588" lon="1.780749">
        <ele>855.492</ele>
        <time>2016-01-31T09:47:05Z</time>
      </trkpt>
      <trkpt lat="41.605635" lon="1.780845">
        <ele>858.542</ele>
        <time>2016-01-31T09:47:37Z</time>
      </trkpt>
      <trkpt lat="41.605657" lon="1.780959">
        <ele>863.662</ele>
        <time>2016-01-31T09:47:52Z</time>
      </trkpt>
      <trkpt lat="41.605664" lon="1.781078">
        <ele>871.183</ele>
        <time>2016-01-31T09:48:07Z</time>
      </trkpt>
      <trkpt lat="41.605606" lon="1.781167">
        <ele>875.311</ele>
        <time>2016-01-31T09:48:36Z</time>
      </trkpt>
      <trkpt lat="41.605661" lon="1.781255">
        <ele>873.208</ele>
        <time>2016-01-31T09:48:46Z</time>
      </trkpt>
      <trkpt lat="41.605726" lon="1.781317">
        <ele>871.317</ele>
        <time>2016-01-31T09:48:51Z</time>
      </trkpt>
      <trkpt lat="41.605725" lon="1.781430">
        <ele>869.148</ele>
        <time>2016-01-31T09:49:00Z</time>
      </trkpt>
      <trkpt lat="41.605691" lon="1.781533">
        <ele>868.097</ele>
        <time>2016-01-31T09:49:08Z</time>
      </trkpt>
      <trkpt lat="41.605635" lon="1.781623">
        <ele>867.359</ele>
        <time>2016-01-31T09:49:17Z</time>
      </trkpt>
      <trkpt lat="41.605562" lon="1.781668">
        <ele>866.589</ele>
        <time>2016-01-31T09:49:26Z</time>
      </trkpt>
      <trkpt lat="41.605480" lon="1.781717">
        <ele>865.968</ele>
        <time>2016-01-31T09:49:32Z</time>
      </trkpt>
      <trkpt lat="41.605407" lon="1.781783">
        <ele>864.014</ele>
        <time>2016-01-31T09:49:38Z</time>
      </trkpt>
      <trkpt lat="41.605350" lon="1.781869">
        <ele>862.414</ele>
        <time>2016-01-31T09:49:45Z</time>
      </trkpt>
      <trkpt lat="41.605334" lon="1.781976">
        <ele>860.886</ele>
        <time>2016-01-31T09:49:51Z</time>
      </trkpt>
      <trkpt lat="41.605323" lon="1.782088">
        <ele>858.760</ele>
        <time>2016-01-31T09:49:59Z</time>
      </trkpt>
      <trkpt lat="41.605331" lon="1.782191">
        <ele>857.626</ele>
        <time>2016-01-31T09:50:05Z</time>
      </trkpt>
      <trkpt lat="41.605340" lon="1.782304">
        <ele>856.708</ele>
        <time>2016-01-31T09:50:12Z</time>
      </trkpt>
      <trkpt lat="41.605392" lon="1.782378">
        <ele>855.489</ele>
        <time>2016-01-31T09:50:18Z</time>
      </trkpt>
      <trkpt lat="41.605453" lon="1.782445">
        <ele>854.560</ele>
        <time>2016-01-31T09:50:24Z</time>
      </trkpt>
      <trkpt lat="41.605518" lon="1.782516">
        <ele>853.379</ele>
        <time>2016-01-31T09:50:30Z</time>
      </trkpt>
      <trkpt lat="41.605580" lon="1.782598">
        <ele>852.541</ele>
        <time>2016-01-31T09:50:37Z</time>
      </trkpt>
      <trkpt lat="41.605655" lon="1.782655">
        <ele>852.041</ele>
        <time>2016-01-31T09:50:45Z</time>
      </trkpt>
      <trkpt lat="41.605734" lon="1.782701">
        <ele>852.190</ele>
        <time>2016-01-31T09:50:53Z</time>
      </trkpt>
      <trkpt lat="41.605819" lon="1.782736">
        <ele>852.156</ele>
        <time>2016-01-31T09:51:00Z</time>
      </trkpt>
      <trkpt lat="41.605896" lon="1.782771">
        <ele>851.686</ele>
        <time>2016-01-31T09:51:09Z</time>
      </trkpt>
      <trkpt lat="41.605973" lon="1.782808">
        <ele>850.527</ele>
        <time>2016-01-31T09:51:16Z</time>
      </trkpt>
      <trkpt lat="41.606060" lon="1.782829">
        <ele>849.968</ele>
        <time>2016-01-31T09:51:22Z</time>
      </trkpt>
      <trkpt lat="41.606143" lon="1.782870">
        <ele>849.514</ele>
        <time>2016-01-31T09:51:28Z</time>
      </trkpt>
      <trkpt lat="41.606225" lon="1.782905">
        <ele>849.808</ele>
        <time>2016-01-31T09:51:35Z</time>
      </trkpt>
      <trkpt lat="41.606309" lon="1.782939">
        <ele>850.763</ele>
        <time>2016-01-31T09:51:43Z</time>
      </trkpt>
      <trkpt lat="41.606383" lon="1.782981">
        <ele>849.864</ele>
        <time>2016-01-31T09:51:50Z</time>
      </trkpt>
      <trkpt lat="41.606463" lon="1.783024">
        <ele>848.893</ele>
        <time>2016-01-31T09:51:56Z</time>
      </trkpt>
      <trkpt lat="41.606524" lon="1.783097">
        <ele>849.845</ele>
        <time>2016-01-31T09:52:03Z</time>
      </trkpt>
      <trkpt lat="41.606603" lon="1.783143">
        <ele>851.495</ele>
        <time>2016-01-31T09:52:10Z</time>
      </trkpt>
      <trkpt lat="41.606658" lon="1.783230">
        <ele>852.894</ele>
        <time>2016-01-31T09:52:18Z</time>
      </trkpt>
      <trkpt lat="41.606716" lon="1.783305">
        <ele>853.350</ele>
        <time>2016-01-31T09:52:25Z</time>
      </trkpt>
      <trkpt lat="41.606705" lon="1.783420">
        <ele>854.660</ele>
        <time>2016-01-31T09:52:36Z</time>
      </trkpt>
      <trkpt lat="41.606648" lon="1.783507">
        <ele>857.116</ele>
        <time>2016-01-31T09:52:46Z</time>
      </trkpt>
      <trkpt lat="41.606583" lon="1.783588">
        <ele>860.876</ele>
        <time>2016-01-31T09:53:00Z</time>
      </trkpt>
      <trkpt lat="41.606542" lon="1.783691">
        <ele>864.013</ele>
        <time>2016-01-31T09:53:15Z</time>
      </trkpt>
      <trkpt lat="41.606483" lon="1.783768">
        <ele>866.508</ele>
        <time>2016-01-31T09:53:25Z</time>
      </trkpt>
      <trkpt lat="41.606456" lon="1.783870">
        <ele>868.262</ele>
        <time>2016-01-31T09:53:33Z</time>
      </trkpt>
      <trkpt lat="41.606517" lon="1.783951">
        <ele>871.753</ele>
        <time>2016-01-31T09:53:50Z</time>
      </trkpt>
      <trkpt lat="41.606569" lon="1.784043">
        <ele>872.732</ele>
        <time>2016-01-31T09:53:59Z</time>
      </trkpt>
      <trkpt lat="41.606629" lon="1.784131">
        <ele>873.394</ele>
        <time>2016-01-31T09:54:07Z</time>
      </trkpt>
      <trkpt lat="41.606650" lon="1.784232">
        <ele>873.484</ele>
        <time>2016-01-31T09:54:17Z</time>
      </trkpt>
      <trkpt lat="41.606655" lon="1.784340">
        <ele>874.263</ele>
        <time>2016-01-31T09:54:26Z</time>
      </trkpt>
      <trkpt lat="41.606611" lon="1.784436">
        <ele>875.079</ele>
        <time>2016-01-31T09:54:34Z</time>
      </trkpt>
      <trkpt lat="41.606570" lon="1.784541">
        <ele>877.289</ele>
        <time>2016-01-31T09:54:46Z</time>
      </trkpt>
      <trkpt lat="41.606538" lon="1.784651">
        <ele>879.295</ele>
        <time>2016-01-31T09:54:55Z</time>
      </trkpt>
      <trkpt lat="41.606621" lon="1.784688">
        <ele>883.849</ele>
        <time>2016-01-31T09:55:28Z</time>
      </trkpt>
      <trkpt lat="41.606701" lon="1.784637">
        <ele>885.223</ele>
        <time>2016-01-31T09:55:37Z</time>
      </trkpt>
      <trkpt lat="41.606778" lon="1.784590">
        <ele>887.108</ele>
        <time>2016-01-31T09:55:45Z</time>
      </trkpt>
      <trkpt lat="41.606856" lon="1.784606">
        <ele>889.090</ele>
        <time>2016-01-31T09:55:54Z</time>
      </trkpt>
      <trkpt lat="41.606938" lon="1.784609">
        <ele>890.741</ele>
        <time>2016-01-31T09:56:02Z</time>
      </trkpt>
      <trkpt lat="41.607021" lon="1.784566">
        <ele>892.290</ele>
        <time>2016-01-31T09:56:13Z</time>
      </trkpt>
      <trkpt lat="41.607076" lon="1.784488">
        <ele>893.372</ele>
        <time>2016-01-31T09:56:18Z</time>
      </trkpt>
      <trkpt lat="41.607163" lon="1.784484">
        <ele>897.892</ele>
        <time>2016-01-31T09:56:35Z</time>
      </trkpt>
      <trkpt lat="41.607249" lon="1.784464">
        <ele>901.211</ele>
        <time>2016-01-31T09:56:50Z</time>
      </trkpt>
      <trkpt lat="41.607332" lon="1.784429">
        <ele>904.917</ele>
        <time>2016-01-31T09:57:16Z</time>
      </trkpt>
      <trkpt lat="41.607416" lon="1.784453">
        <ele>904.727</ele>
        <time>2016-01-31T09:58:00Z</time>
      </trkpt>
      <trkpt lat="41.607475" lon="1.784531">
        <ele>907.643</ele>
        <time>2016-01-31T09:58:17Z</time>
      </trkpt>
      <trkpt lat="41.607540" lon="1.784609">
        <ele>909.964</ele>
        <time>2016-01-31T09:58:28Z</time>
      </trkpt>
      <trkpt lat="41.607621" lon="1.784602">
        <ele>911.710</ele>
        <time>2016-01-31T09:58:38Z</time>
      </trkpt>
      <trkpt lat="41.607706" lon="1.784595">
        <ele>913.508</ele>
        <time>2016-01-31T09:58:49Z</time>
      </trkpt>
      <trkpt lat="41.607789" lon="1.784634">
        <ele>914.425</ele>
        <time>2016-01-31T09:59:04Z</time>
      </trkpt>
      <trkpt lat="41.607875" lon="1.784662">
        <ele>916.626</ele>
        <time>2016-01-31T09:59:17Z</time>
      </trkpt>
      <trkpt lat="41.607962" lon="1.784678">
        <ele>919.645</ele>
        <time>2016-01-31T09:59:30Z</time>
      </trkpt>
      <trkpt lat="41.608029" lon="1.784611">
        <ele>926.487</ele>
        <time>2016-01-31T09:59:48Z</time>
      </trkpt>
      <trkpt lat="41.608099" lon="1.784609">
        <ele>928.497</ele>
        <time>2016-01-31T10:00:08Z</time>
      </trkpt>
      <trkpt lat="41.608213" lon="1.784635">
        <ele>928.816</ele>
        <time>2016-01-31T10:00:19Z</time>
      </trkpt>
      <trkpt lat="41.608293" lon="1.784594">
        <ele>929.952</ele>
        <time>2016-01-31T10:00:29Z</time>
      </trkpt>
      <trkpt lat="41.608367" lon="1.784629">
        <ele>942.812</ele>
        <time>2016-01-31T10:00:40Z</time>
      </trkpt>
      <trkpt lat="41.608465" lon="1.784665">
        <ele>947.835</ele>
        <time>2016-01-31T10:00:57Z</time>
      </trkpt>
      <trkpt lat="41.608539" lon="1.784643">
        <ele>951.186</ele>
        <time>2016-01-31T10:01:06Z</time>
      </trkpt>
      <trkpt lat="41.608605" lon="1.784667">
        <ele>954.214</ele>
        <time>2016-01-31T10:01:12Z</time>
      </trkpt>
      <trkpt lat="41.608665" lon="1.784660">
        <ele>936.708</ele>
        <time>2016-01-31T10:03:55Z</time>
      </trkpt>
      <trkpt lat="41.608716" lon="1.784668">
        <ele>958.074</ele>
        <time>2016-01-31T10:04:09Z</time>
      </trkpt>
      <trkpt lat="41.608749" lon="1.784678">
        <ele>956.645</ele>
        <time>2016-01-31T10:04:21Z</time>
      </trkpt>
      <trkpt lat="41.608812" lon="1.784678">
        <ele>958.334</ele>
        <time>2016-01-31T10:04:41Z</time>
      </trkpt>
      <trkpt lat="41.608842" lon="1.784651">
        <ele>962.926</ele>
        <time>2016-01-31T10:04:57Z</time>
      </trkpt>
      <trkpt lat="41.608883" lon="1.784588">
        <ele>974.076</ele>
        <time>2016-01-31T10:05:09Z</time>
      </trkpt>
      <trkpt lat="41.608934" lon="1.784620">
        <ele>974.695</ele>
        <time>2016-01-31T10:05:41Z</time>
      </trkpt>
      <trkpt lat="41.609045" lon="1.784637">
        <ele>982.961</ele>
        <time>2016-01-31T10:06:01Z</time>
      </trkpt>
      <trkpt lat="41.609102" lon="1.784574">
        <ele>1002.211</ele>
        <time>2016-01-31T10:06:17Z</time>
      </trkpt>
      <trkpt lat="41.609193" lon="1.784606">
        <ele>991.479</ele>
        <time>2016-01-31T09:49:46Z</time>
      </trkpt>
      <trkpt lat="41.609298" lon="1.784648">
        <ele>984.205</ele>
        <time>2016-01-30T11:51:12Z</time>
      </trkpt>
      <trkpt lat="41.609369" lon="1.784601">
        <ele>986.225</ele>
        <time>2015-11-04T22:49:43Z</time>
      </trkpt>
      <trkpt lat="41.609430" lon="1.784519">
        <ele>993.608</ele>
        <time>1983-11-26T22:22:42Z</time>
      </trkpt>
      <trkpt lat="41.609438" lon="1.784486">
        <ele>999.118</ele>
        <time>2016-01-31T10:06:33Z</time>
      </trkpt>
      <trkpt lat="41.609356" lon="1.784306">
        <ele>999.329</ele>
        <time>2016-01-31T10:06:37Z</time>
      </trkpt>
      <trkpt lat="41.609270" lon="1.784164">
        <ele>995.498</ele>
        <time>2016-01-31T10:06:41Z</time>
      </trkpt>
      <trkpt lat="41.609274" lon="1.784131">
        <ele>954.870</ele>
        <time>2016-01-31T10:06:53Z</time>
      </trkpt>
      <trkpt lat="41.609344" lon="1.784107">
        <ele>955.050</ele>
        <time>2016-01-31T10:06:59Z</time>
      </trkpt>
      <trkpt lat="41.609342" lon="1.784119">
        <ele>1020.839</ele>
        <time>2016-01-31T11:09:50Z</time>
      </trkpt>
      <trkpt lat="41.609423" lon="1.784088">
        <ele>1020.555</ele>
        <time>2016-01-31T11:10:34Z</time>
      </trkpt>
      <trkpt lat="41.609411" lon="1.784085">
        <ele>1022.495</ele>
        <time>2016-01-31T11:12:27Z</time>
      </trkpt>
      <trkpt lat="41.609483" lon="1.784130">
        <ele>1032.074</ele>
        <time>2016-01-31T11:17:28Z</time>
      </trkpt>
      <trkpt lat="41.609568" lon="1.784112">
        <ele>1048.656</ele>
        <time>2016-01-31T11:40:29Z</time>
      </trkpt>
      <trkpt lat="41.609564" lon="1.784117">
        <ele>1057.721</ele>
        <time>2016-01-31T11:58:09Z</time>
      </trkpt>
      <trkpt lat="41.609648" lon="1.784148">
        <ele>1058.408</ele>
        <time>2016-01-31T12:08:32Z</time>
      </trkpt>
      <trkpt lat="41.609559" lon="1.784144">
        <ele>1059.098</ele>
        <time>2016-01-31T12:12:59Z</time>
      </trkpt>
      <trkpt lat="41.609470" lon="1.784140">
        <ele>1043.369</ele>
        <time>2016-01-31T12:20:47Z</time>
      </trkpt>
      <trkpt lat="41.609395" lon="1.784125">
        <ele>1021.888</ele>
        <time>2016-01-31T12:25:05Z</time>
      </trkpt>
      <trkpt lat="41.609313" lon="1.784151">
        <ele>1020.880</ele>
        <time>2016-01-31T12:26:59Z</time>
      </trkpt>
      <trkpt lat="41.609232" lon="1.784115">
        <ele>1021.610</ele>
        <time>2016-01-31T12:31:14Z</time>
      </trkpt>
      <trkpt lat="41.609248" lon="1.784102">
        <ele>1020.989</ele>
        <time>2016-01-31T12:45:07Z</time>
      </trkpt>
      <trkpt lat="41.609252" lon="1.784140">
        <ele>996.795</ele>
        <time>2016-01-31T12:58:36Z</time>
      </trkpt>
      <trkpt lat="41.609288" lon="1.784189">
        <ele>997.385</ele>
        <time>2016-01-31T13:03:17Z</time>
      </trkpt>
      <trkpt lat="41.609316" lon="1.784253">
        <ele>997.256</ele>
        <time>2016-01-31T13:05:24Z</time>
      </trkpt>
      <trkpt lat="41.609376" lon="1.784370">
        <ele>994.259</ele>
        <time>2016-01-31T13:05:40Z</time>
      </trkpt>
      <trkpt lat="41.609430" lon="1.784489">
        <ele>996.714</ele>
        <time>2016-01-31T13:06:20Z</time>
      </trkpt>
      <trkpt lat="41.609377" lon="1.784584">
        <ele>987.108</ele>
        <time>2016-01-31T13:06:56Z</time>
      </trkpt>
      <trkpt lat="41.609331" lon="1.784648">
        <ele>975.266</ele>
        <time>2016-01-31T13:07:46Z</time>
      </trkpt>
      <trkpt lat="41.609256" lon="1.784650">
        <ele>983.987</ele>
        <time>2016-01-31T13:07:58Z</time>
      </trkpt>
      <trkpt lat="41.609194" lon="1.784635">
        <ele>967.166</ele>
        <time>2016-01-31T13:08:14Z</time>
      </trkpt>
      <trkpt lat="41.609154" lon="1.784562">
        <ele>1007.048</ele>
        <time>2016-01-31T13:08:41Z</time>
      </trkpt>
      <trkpt lat="41.609070" lon="1.784597">
        <ele>956.098</ele>
        <time>2016-01-31T13:08:59Z</time>
      </trkpt>
      <trkpt lat="41.609014" lon="1.784651">
        <ele>977.047</ele>
        <time>2016-01-31T13:09:03Z</time>
      </trkpt>
      <trkpt lat="41.608962" lon="1.784617">
        <ele>977.433</ele>
        <time>2016-01-31T13:09:11Z</time>
      </trkpt>
      <trkpt lat="41.608916" lon="1.784608">
        <ele>975.013</ele>
        <time>2016-01-31T13:09:19Z</time>
      </trkpt>
      <trkpt lat="41.608883" lon="1.784625">
        <ele>968.861</ele>
        <time>2016-01-31T13:09:25Z</time>
      </trkpt>
      <trkpt lat="41.608849" lon="1.784663">
        <ele>961.921</ele>
        <time>2016-01-31T13:09:27Z</time>
      </trkpt>
      <trkpt lat="41.608781" lon="1.784673">
        <ele>957.913</ele>
        <time>2016-01-31T13:10:01Z</time>
      </trkpt>
      <trkpt lat="41.608712" lon="1.784648">
        <ele>961.208</ele>
        <time>2016-01-31T13:10:11Z</time>
      </trkpt>
      <trkpt lat="41.608629" lon="1.784649">
        <ele>957.197</ele>
        <time>2016-01-31T13:10:15Z</time>
      </trkpt>
      <trkpt lat="41.608580" lon="1.784663">
        <ele>952.978</ele>
        <time>2016-01-31T13:10:24Z</time>
      </trkpt>
      <trkpt lat="41.608523" lon="1.784615">
        <ele>939.977</ele>
        <time>2016-01-31T13:10:28Z</time>
      </trkpt>
      <trkpt lat="41.608438" lon="1.784644">
        <ele>936.659</ele>
        <time>2016-01-31T13:10:36Z</time>
      </trkpt>
      <trkpt lat="41.608364" lon="1.784675">
        <ele>932.629</ele>
        <time>2016-01-31T13:10:46Z</time>
      </trkpt>
      <trkpt lat="41.608286" lon="1.784617">
        <ele>934.228</ele>
        <time>2016-01-31T13:10:54Z</time>
      </trkpt>
      <trkpt lat="41.608204" lon="1.784580">
        <ele>930.234</ele>
        <time>2016-01-31T13:11:13Z</time>
      </trkpt>
      <trkpt lat="41.608128" lon="1.784627">
        <ele>929.664</ele>
        <time>2016-01-31T13:11:18Z</time>
      </trkpt>
      <trkpt lat="41.608047" lon="1.784640">
        <ele>929.321</ele>
        <time>2016-01-31T13:11:23Z</time>
      </trkpt>
      <trkpt lat="41.607965" lon="1.784685">
        <ele>926.041</ele>
        <time>2016-01-31T13:11:30Z</time>
      </trkpt>
      <trkpt lat="41.607884" lon="1.784640">
        <ele>922.305</ele>
        <time>2016-01-31T13:11:41Z</time>
      </trkpt>
      <trkpt lat="41.607806" lon="1.784611">
        <ele>919.608</ele>
        <time>2016-01-31T13:11:51Z</time>
      </trkpt>
      <trkpt lat="41.607718" lon="1.784606">
        <ele>919.833</ele>
        <time>2016-01-31T13:12:00Z</time>
      </trkpt>
      <trkpt lat="41.607634" lon="1.784601">
        <ele>915.524</ele>
        <time>2016-01-31T13:12:13Z</time>
      </trkpt>
      <trkpt lat="41.607555" lon="1.784633">
        <ele>914.223</ele>
        <time>2016-01-31T13:12:26Z</time>
      </trkpt>
      <trkpt lat="41.607487" lon="1.784557">
        <ele>912.645</ele>
        <time>2016-01-31T13:12:32Z</time>
      </trkpt>
      <trkpt lat="41.607424" lon="1.784481">
        <ele>905.715</ele>
        <time>2016-01-31T13:13:19Z</time>
      </trkpt>
      <trkpt lat="41.607348" lon="1.784451">
        <ele>904.134</ele>
        <time>2016-01-31T13:13:26Z</time>
      </trkpt>
      <trkpt lat="41.607264" lon="1.784461">
        <ele>904.220</ele>
        <time>2016-01-31T13:13:34Z</time>
      </trkpt>
      <trkpt lat="41.607194" lon="1.784517">
        <ele>900.860</ele>
        <time>2016-01-31T13:13:42Z</time>
      </trkpt>
      <trkpt lat="41.607105" lon="1.784537">
        <ele>899.914</ele>
        <time>2016-01-31T13:13:53Z</time>
      </trkpt>
      <trkpt lat="41.607021" lon="1.784514">
        <ele>895.854</ele>
        <time>2016-01-31T13:14:08Z</time>
      </trkpt>
      <trkpt lat="41.606946" lon="1.784552">
        <ele>893.809</ele>
        <time>2016-01-31T13:14:15Z</time>
      </trkpt>
      <trkpt lat="41.606873" lon="1.784605">
        <ele>894.908</ele>
        <time>2016-01-31T13:14:24Z</time>
      </trkpt>
      <trkpt lat="41.606786" lon="1.784618">
        <ele>893.332</ele>
        <time>2016-01-31T13:14:32Z</time>
      </trkpt>
      <trkpt lat="41.606708" lon="1.784675">
        <ele>889.253</ele>
        <time>2016-01-31T13:14:41Z</time>
      </trkpt>
      <trkpt lat="41.606632" lon="1.784715">
        <ele>888.742</ele>
        <time>2016-01-31T13:14:48Z</time>
      </trkpt>
      <trkpt lat="41.606556" lon="1.784761">
        <ele>886.674</ele>
        <time>2016-01-31T13:14:54Z</time>
      </trkpt>
      <trkpt lat="41.606468" lon="1.784763">
        <ele>883.294</ele>
        <time>2016-01-31T13:15:15Z</time>
      </trkpt>
      <trkpt lat="41.606499" lon="1.784650">
        <ele>882.913</ele>
        <time>2016-01-31T13:15:31Z</time>
      </trkpt>
      <trkpt lat="41.606534" lon="1.784543">
        <ele>877.879</ele>
        <time>2016-01-31T13:15:44Z</time>
      </trkpt>
      <trkpt lat="41.606580" lon="1.784443">
        <ele>876.139</ele>
        <time>2016-01-31T13:15:55Z</time>
      </trkpt>
      <trkpt lat="41.606624" lon="1.784343">
        <ele>875.594</ele>
        <time>2016-01-31T13:16:02Z</time>
      </trkpt>
      <trkpt lat="41.606617" lon="1.784241">
        <ele>871.657</ele>
        <time>2016-01-31T13:16:09Z</time>
      </trkpt>
      <trkpt lat="41.606571" lon="1.784140">
        <ele>874.922</ele>
        <time>2016-01-31T13:16:19Z</time>
      </trkpt>
      <trkpt lat="41.606516" lon="1.784059">
        <ele>872.808</ele>
        <time>2016-01-31T13:16:27Z</time>
      </trkpt>
      <trkpt lat="41.606456" lon="1.783981">
        <ele>872.690</ele>
        <time>2016-01-31T13:16:35Z</time>
      </trkpt>
      <trkpt lat="41.606380" lon="1.783936">
        <ele>872.291</ele>
        <time>2016-01-31T13:16:42Z</time>
      </trkpt>
      <trkpt lat="41.606375" lon="1.783819">
        <ele>871.950</ele>
        <time>2016-01-31T13:16:55Z</time>
      </trkpt>
      <trkpt lat="41.606429" lon="1.783732">
        <ele>864.442</ele>
        <time>2016-01-31T13:17:05Z</time>
      </trkpt>
      <trkpt lat="41.606471" lon="1.783635">
        <ele>867.182</ele>
        <time>2016-01-31T13:17:11Z</time>
      </trkpt>
      <trkpt lat="41.606522" lon="1.783543">
        <ele>865.641</ele>
        <time>2016-01-31T13:17:21Z</time>
      </trkpt>
      <trkpt lat="41.606570" lon="1.783444">
        <ele>861.917</ele>
        <time>2016-01-31T13:17:33Z</time>
      </trkpt>
      <trkpt lat="41.606644" lon="1.783399">
        <ele>855.847</ele>
        <time>2016-01-31T13:17:43Z</time>
      </trkpt>
      <trkpt lat="41.606677" lon="1.783301">
        <ele>849.969</ele>
        <time>2016-01-31T13:17:53Z</time>
      </trkpt>
      <trkpt lat="41.606644" lon="1.783204">
        <ele>853.204</ele>
        <time>2016-01-31T13:18:02Z</time>
      </trkpt>
      <trkpt lat="41.606566" lon="1.783179">
        <ele>854.424</ele>
        <time>2016-01-31T13:18:08Z</time>
      </trkpt>
      <trkpt lat="41.606500" lon="1.783117">
        <ele>855.308</ele>
        <time>2016-01-31T13:18:16Z</time>
      </trkpt>
      <trkpt lat="41.606430" lon="1.783048">
        <ele>846.417</ele>
        <time>2016-01-31T13:18:22Z</time>
      </trkpt>
      <trkpt lat="41.606372" lon="1.782969">
        <ele>848.358</ele>
        <time>2016-01-31T13:18:34Z</time>
      </trkpt>
      <trkpt lat="41.606300" lon="1.782918">
        <ele>848.577</ele>
        <time>2016-01-31T13:18:43Z</time>
      </trkpt>
      <trkpt lat="41.606222" lon="1.782943">
        <ele>850.669</ele>
        <time>2016-01-31T13:18:48Z</time>
      </trkpt>
      <trkpt lat="41.606136" lon="1.782931">
        <ele>845.659</ele>
        <time>2016-01-31T13:18:53Z</time>
      </trkpt>
      <trkpt lat="41.606077" lon="1.782844">
        <ele>846.488</ele>
        <time>2016-01-31T13:19:03Z</time>
      </trkpt>
      <trkpt lat="41.605995" lon="1.782844">
        <ele>845.354</ele>
        <time>2016-01-31T13:19:10Z</time>
      </trkpt>
      <trkpt lat="41.605922" lon="1.782786">
        <ele>845.974</ele>
        <time>2016-01-31T13:19:18Z</time>
      </trkpt>
      <trkpt lat="41.605856" lon="1.782731">
        <ele>848.067</ele>
        <time>2016-01-31T13:19:26Z</time>
      </trkpt>
      <trkpt lat="41.605779" lon="1.782746">
        <ele>849.881</ele>
        <time>2016-01-31T13:19:30Z</time>
      </trkpt>
      <trkpt lat="41.605694" lon="1.782720">
        <ele>851.819</ele>
        <time>2016-01-31T13:19:38Z</time>
      </trkpt>
      <trkpt lat="41.605645" lon="1.782649">
        <ele>854.508</ele>
        <time>2016-01-31T13:19:45Z</time>
      </trkpt>
      <trkpt lat="41.605572" lon="1.782580">
        <ele>848.347</ele>
        <time>2016-01-31T13:19:51Z</time>
      </trkpt>
      <trkpt lat="41.605512" lon="1.782504">
        <ele>850.678</ele>
        <time>2016-01-31T13:19:58Z</time>
      </trkpt>
      <trkpt lat="41.605439" lon="1.782440">
        <ele>849.827</ele>
        <time>2016-01-31T13:20:06Z</time>
      </trkpt>
      <trkpt lat="41.605370" lon="1.782363">
        <ele>856.549</ele>
        <time>2016-01-31T13:20:14Z</time>
      </trkpt>
      <trkpt lat="41.605317" lon="1.782272">
        <ele>850.139</ele>
        <time>2016-01-31T13:20:22Z</time>
      </trkpt>
      <trkpt lat="41.605298" lon="1.782162">
        <ele>848.128</ele>
        <time>2016-01-31T13:20:29Z</time>
      </trkpt>
      <trkpt lat="41.605318" lon="1.782046">
        <ele>853.344</ele>
        <time>2016-01-31T13:20:42Z</time>
      </trkpt>
      <trkpt lat="41.605333" lon="1.781941">
        <ele>855.424</ele>
        <time>2016-01-31T13:20:49Z</time>
      </trkpt>
      <trkpt lat="41.605364" lon="1.781828">
        <ele>857.679</ele>
        <time>2016-01-31T13:20:58Z</time>
      </trkpt>
      <trkpt lat="41.605422" lon="1.781738">
        <ele>859.005</ele>
        <time>2016-01-31T13:21:07Z</time>
      </trkpt>
      <trkpt lat="41.605504" lon="1.781721">
        <ele>862.825</ele>
        <time>2016-01-31T13:21:18Z</time>
      </trkpt>
      <trkpt lat="41.605578" lon="1.781718">
        <ele>862.008</ele>
        <time>2016-01-31T13:21:25Z</time>
      </trkpt>
      <trkpt lat="41.605649" lon="1.781645">
        <ele>864.088</ele>
        <time>2016-01-31T13:21:33Z</time>
      </trkpt>
      <trkpt lat="41.605670" lon="1.781532">
        <ele>866.169</ele>
        <time>2016-01-31T13:21:44Z</time>
      </trkpt>
      <trkpt lat="41.605737" lon="1.781473">
        <ele>866.788</ele>
        <time>2016-01-31T13:21:50Z</time>
      </trkpt>
      <trkpt lat="41.605767" lon="1.781385">
        <ele>867.510</ele>
        <time>2016-01-31T13:21:55Z</time>
      </trkpt>
      <trkpt lat="41.605722" lon="1.781294">
        <ele>868.870</ele>
        <time>2016-01-31T13:22:00Z</time>
      </trkpt>
      <trkpt lat="41.605645" lon="1.781260">
        <ele>867.789</ele>
        <time>2016-01-31T13:22:07Z</time>
      </trkpt>
      <trkpt lat="41.605570" lon="1.781261">
        <ele>869.365</ele>
        <time>2016-01-31T13:22:12Z</time>
      </trkpt>
      <trkpt lat="41.605586" lon="1.781143">
        <ele>873.785</ele>
        <time>2016-01-31T13:22:36Z</time>
      </trkpt>
      <trkpt lat="41.605581" lon="1.781025">
        <ele>874.017</ele>
        <time>2016-01-31T13:22:54Z</time>
      </trkpt>
      <trkpt lat="41.605554" lon="1.780918">
        <ele>868.087</ele>
        <time>2016-01-31T13:23:13Z</time>
      </trkpt>
      <trkpt lat="41.605610" lon="1.780826">
        <ele>856.815</ele>
        <time>2016-01-31T13:23:31Z</time>
      </trkpt>
      <trkpt lat="41.605625" lon="1.780715">
        <ele>858.308</ele>
        <time>2016-01-31T13:23:40Z</time>
      </trkpt>
      <trkpt lat="41.605679" lon="1.780630">
        <ele>857.052</ele>
        <time>2016-01-31T13:23:49Z</time>
      </trkpt>
      <trkpt lat="41.605749" lon="1.780570">
        <ele>850.133</ele>
        <time>2016-01-31T13:24:00Z</time>
      </trkpt>
      <trkpt lat="41.605811" lon="1.780495">
        <ele>848.132</ele>
        <time>2016-01-31T13:24:13Z</time>
      </trkpt>
      <trkpt lat="41.605885" lon="1.780435">
        <ele>846.434</ele>
        <time>2016-01-31T13:24:23Z</time>
      </trkpt>
      <trkpt lat="41.605960" lon="1.780391">
        <ele>846.294</ele>
        <time>2016-01-31T13:24:30Z</time>
      </trkpt>
      <trkpt lat="41.605980" lon="1.780279">
        <ele>844.193</ele>
        <time>2016-01-31T13:24:35Z</time>
      </trkpt>
      <trkpt lat="41.605999" lon="1.780166">
        <ele>838.789</ele>
        <time>2016-01-31T13:24:48Z</time>
      </trkpt>
      <trkpt lat="41.606043" lon="1.780064">
        <ele>838.349</ele>
        <time>2016-01-31T13:25:12Z</time>
      </trkpt>
      <trkpt lat="41.606078" lon="1.779958">
        <ele>836.539</ele>
        <time>2016-01-31T13:25:22Z</time>
      </trkpt>
      <trkpt lat="41.606137" lon="1.779885">
        <ele>835.401</ele>
        <time>2016-01-31T13:25:29Z</time>
      </trkpt>
      <trkpt lat="41.606194" lon="1.779807">
        <ele>833.021</ele>
        <time>2016-01-31T13:25:35Z</time>
      </trkpt>
      <trkpt lat="41.606265" lon="1.779768">
        <ele>830.708</ele>
        <time>2016-01-31T13:25:42Z</time>
      </trkpt>
      <trkpt lat="41.606350" lon="1.779738">
        <ele>828.454</ele>
        <time>2016-01-31T13:25:50Z</time>
      </trkpt>
      <trkpt lat="41.606432" lon="1.779769">
        <ele>827.775</ele>
        <time>2016-01-31T13:25:58Z</time>
      </trkpt>
      <trkpt lat="41.606483" lon="1.779856">
        <ele>826.444</ele>
        <time>2016-01-31T13:26:05Z</time>
      </trkpt>
      <trkpt lat="41.606543" lon="1.779925">
        <ele>825.456</ele>
        <time>2016-01-31T13:26:11Z</time>
      </trkpt>
      <trkpt lat="41.606596" lon="1.780012">
        <ele>823.936</ele>
        <time>2016-01-31T13:26:19Z</time>
      </trkpt>
      <trkpt lat="41.606683" lon="1.779987">
        <ele>823.165</ele>
        <time>2016-01-31T13:26:25Z</time>
      </trkpt>
      <trkpt lat="41.606769" lon="1.779961">
        <ele>823.771</ele>
        <time>2016-01-31T13:26:31Z</time>
      </trkpt>
      <trkpt lat="41.606842" lon="1.779923">
        <ele>822.851</ele>
        <time>2016-01-31T13:26:37Z</time>
      </trkpt>
      <trkpt lat="41.606917" lon="1.779876">
        <ele>822.737</ele>
        <time>2016-01-31T13:26:44Z</time>
      </trkpt>
      <trkpt lat="41.606991" lon="1.779814">
        <ele>821.949</ele>
        <time>2016-01-31T13:26:51Z</time>
      </trkpt>
      <trkpt lat="41.607070" lon="1.779761">
        <ele>821.013</ele>
        <time>2016-01-31T13:26:59Z</time>
      </trkpt>
      <trkpt lat="41.607157" lon="1.779787">
        <ele>821.208</ele>
        <time>2016-01-31T13:27:08Z</time>
      </trkpt>
      <trkpt lat="41.607234" lon="1.779740">
        <ele>820.114</ele>
        <time>2016-01-31T13:27:16Z</time>
      </trkpt>
      <trkpt lat="41.607315" lon="1.779695">
        <ele>820.515</ele>
        <time>2016-01-31T13:27:23Z</time>
      </trkpt>
      <trkpt lat="41.607403" lon="1.779671">
        <ele>819.514</ele>
        <time>2016-01-31T13:27:30Z</time>
      </trkpt>
      <trkpt lat="41.607489" lon="1.779638">
        <ele>820.076</ele>
        <time>2016-01-31T13:27:42Z</time>
      </trkpt>
      <trkpt lat="41.607573" lon="1.779640">
        <ele>816.856</ele>
        <time>2016-01-31T13:27:50Z</time>
      </trkpt>
      <trkpt lat="41.607651" lon="1.779671">
        <ele>818.185</ele>
        <time>2016-01-31T13:27:58Z</time>
      </trkpt>
      <trkpt lat="41.607728" lon="1.779689">
        <ele>817.091</ele>
        <time>2016-01-31T13:28:04Z</time>
      </trkpt>
      <trkpt lat="41.607810" lon="1.779702">
        <ele>816.271</ele>
        <time>2016-01-31T13:28:12Z</time>
      </trkpt>
      <trkpt lat="41.607883" lon="1.779663">
        <ele>815.215</ele>
        <time>2016-01-31T13:28:19Z</time>
      </trkpt>
      <trkpt lat="41.607959" lon="1.779601">
        <ele>812.865</ele>
        <time>2016-01-31T13:28:28Z</time>
      </trkpt>
      <trkpt lat="41.608036" lon="1.779542">
        <ele>810.011</ele>
        <time>2016-01-31T13:28:37Z</time>
      </trkpt>
      <trkpt lat="41.608124" lon="1.779539">
        <ele>808.008</ele>
        <time>2016-01-31T13:28:46Z</time>
      </trkpt>
      <trkpt lat="41.608200" lon="1.779514">
        <ele>806.782</ele>
        <time>2016-01-31T13:28:55Z</time>
      </trkpt>
      <trkpt lat="41.608273" lon="1.779461">
        <ele>804.473</ele>
        <time>2016-01-31T13:29:03Z</time>
      </trkpt>
      <trkpt lat="41.608344" lon="1.779393">
        <ele>802.312</ele>
        <time>2016-01-31T13:29:10Z</time>
      </trkpt>
      <trkpt lat="41.608403" lon="1.779318">
        <ele>801.154</ele>
        <time>2016-01-31T13:29:16Z</time>
      </trkpt>
      <trkpt lat="41.608468" lon="1.779256">
        <ele>799.454</ele>
        <time>2016-01-31T13:29:23Z</time>
      </trkpt>
      <trkpt lat="41.608541" lon="1.779198">
        <ele>797.383</ele>
        <time>2016-01-31T13:29:30Z</time>
      </trkpt>
      <trkpt lat="41.608629" lon="1.779207">
        <ele>794.669</ele>
        <time>2016-01-31T13:29:38Z</time>
      </trkpt>
      <trkpt lat="41.608710" lon="1.779190">
        <ele>793.569</ele>
        <time>2016-01-31T13:29:45Z</time>
      </trkpt>
      <trkpt lat="41.608789" lon="1.779164">
        <ele>792.328</ele>
        <time>2016-01-31T13:29:51Z</time>
      </trkpt>
      <trkpt lat="41.608898" lon="1.779144">
        <ele>791.389</ele>
        <time>2016-01-31T13:31:27Z</time>
      </trkpt>
      <trkpt lat="41.608964" lon="1.779066">
        <ele>790.917</ele>
        <time>2016-01-31T13:31:32Z</time>
      </trkpt>
      <trkpt lat="41.608983" lon="1.778954">
        <ele>790.608</ele>
        <time>2016-01-31T13:31:38Z</time>
      </trkpt>
      <trkpt lat="41.609024" lon="1.778860">
        <ele>790.423</ele>
        <time>2016-01-31T13:31:44Z</time>
      </trkpt>
      <trkpt lat="41.609081" lon="1.778777">
        <ele>789.654</ele>
        <time>2016-01-31T13:31:50Z</time>
      </trkpt>
      <trkpt lat="41.609134" lon="1.778686">
        <ele>788.563</ele>
        <time>2016-01-31T13:31:57Z</time>
      </trkpt>
      <trkpt lat="41.609177" lon="1.778596">
        <ele>788.025</ele>
        <time>2016-01-31T13:32:05Z</time>
      </trkpt>
      <trkpt lat="41.609198" lon="1.778494">
        <ele>788.455</ele>
        <time>2016-01-31T13:32:10Z</time>
      </trkpt>
      <trkpt lat="41.609231" lon="1.778388">
        <ele>789.274</ele>
        <time>2016-01-31T13:32:17Z</time>
      </trkpt>
      <trkpt lat="41.609283" lon="1.778292">
        <ele>788.950</ele>
        <time>2016-01-31T13:32:25Z</time>
      </trkpt>
      <trkpt lat="41.609338" lon="1.778212">
        <ele>789.120</ele>
        <time>2016-01-31T13:32:32Z</time>
      </trkpt>
      <trkpt lat="41.609371" lon="1.778112">
        <ele>789.142</ele>
        <time>2016-01-31T13:32:38Z</time>
      </trkpt>
      <trkpt lat="41.609373" lon="1.777999">
        <ele>788.922</ele>
        <time>2016-01-31T13:32:44Z</time>
      </trkpt>
      <trkpt lat="41.609371" lon="1.777892">
        <ele>789.614</ele>
        <time>2016-01-31T13:32:53Z</time>
      </trkpt>
      <trkpt lat="41.609347" lon="1.777788">
        <ele>788.508</ele>
        <time>2016-01-31T13:33:00Z</time>
      </trkpt>
      <trkpt lat="41.609329" lon="1.777685">
        <ele>790.185</ele>
        <time>2016-01-31T13:33:07Z</time>
      </trkpt>
      <trkpt lat="41.609315" lon="1.777567">
        <ele>790.756</ele>
        <time>2016-01-31T13:33:13Z</time>
      </trkpt>
      <trkpt lat="41.609295" lon="1.777453">
        <ele>791.885</ele>
        <time>2016-01-31T13:33:20Z</time>
      </trkpt>
      <trkpt lat="41.609288" lon="1.777339">
        <ele>792.447</ele>
        <time>2016-01-31T13:33:27Z</time>
      </trkpt>
      <trkpt lat="41.609276" lon="1.777229">
        <ele>793.357</ele>
        <time>2016-01-31T13:33:33Z</time>
      </trkpt>
      <trkpt lat="41.609267" lon="1.777120">
        <ele>793.156</ele>
        <time>2016-01-31T13:33:39Z</time>
      </trkpt>
      <trkpt lat="41.609239" lon="1.777011">
        <ele>793.922</ele>
        <time>2016-01-31T13:33:46Z</time>
      </trkpt>
      <trkpt lat="41.609221" lon="1.776893">
        <ele>794.562</ele>
        <time>2016-01-31T13:33:52Z</time>
      </trkpt>
      <trkpt lat="41.609187" lon="1.776795">
        <ele>795.294</ele>
        <time>2016-01-31T13:33:59Z</time>
      </trkpt>
      <trkpt lat="41.609138" lon="1.776713">
        <ele>795.157</ele>
        <time>2016-01-31T13:34:05Z</time>
      </trkpt>
      <trkpt lat="41.609075" lon="1.776630">
        <ele>794.822</ele>
        <time>2016-01-31T13:34:11Z</time>
      </trkpt>
      <trkpt lat="41.609012" lon="1.776547">
        <ele>794.708</ele>
        <time>2016-01-31T13:34:18Z</time>
      </trkpt>
      <trkpt lat="41.608963" lon="1.776462">
        <ele>794.040</ele>
        <time>2016-01-31T13:34:24Z</time>
      </trkpt>
      <trkpt lat="41.608928" lon="1.776356">
        <ele>793.221</ele>
        <time>2016-01-31T13:34:29Z</time>
      </trkpt>
      <trkpt lat="41.608887" lon="1.776263">
        <ele>793.840</ele>
        <time>2016-01-31T13:34:35Z</time>
      </trkpt>
      <trkpt lat="41.608864" lon="1.776156">
        <ele>794.162</ele>
        <time>2016-01-31T13:34:42Z</time>
      </trkpt>
      <trkpt lat="41.608845" lon="1.776051">
        <ele>794.272</ele>
        <time>2016-01-31T13:34:48Z</time>
      </trkpt>
      <trkpt lat="41.608838" lon="1.775931">
        <ele>794.331</ele>
        <time>2016-01-31T13:34:54Z</time>
      </trkpt>
      <trkpt lat="41.608816" lon="1.775829">
        <ele>794.997</ele>
        <time>2016-01-31T13:35:00Z</time>
      </trkpt>
      <trkpt lat="41.608790" lon="1.775729">
        <ele>794.877</ele>
        <time>2016-01-31T13:35:06Z</time>
      </trkpt>
      <trkpt lat="41.608753" lon="1.775626">
        <ele>794.668</ele>
        <time>2016-01-31T13:35:12Z</time>
      </trkpt>
      <trkpt lat="41.608744" lon="1.775509">
        <ele>794.542</ele>
        <time>2016-01-31T13:35:18Z</time>
      </trkpt>
      <trkpt lat="41.608757" lon="1.775391">
        <ele>792.726</ele>
        <time>2016-01-31T13:35:25Z</time>
      </trkpt>
      <trkpt lat="41.608805" lon="1.775305">
        <ele>793.808</ele>
        <time>2016-01-31T13:35:31Z</time>
      </trkpt>
      <trkpt lat="41.608870" lon="1.775240">
        <ele>794.847</ele>
        <time>2016-01-31T13:35:37Z</time>
      </trkpt>
      <trkpt lat="41.608915" lon="1.775166">
        <ele>794.618</ele>
        <time>2016-01-31T13:35:42Z</time>
      </trkpt>
      <trkpt lat="41.608954" lon="1.775104">
        <ele>793.867</ele>
        <time>2016-01-31T13:35:46Z</time>
      </trkpt>
      <trkpt lat="41.608977" lon="1.775001">
        <ele>793.029</ele>
        <time>2016-01-31T13:35:52Z</time>
      </trkpt>
      <trkpt lat="41.608986" lon="1.774934">
        <ele>793.019</ele>
        <time>2016-01-31T13:35:56Z</time>
      </trkpt>
      <trkpt lat="41.608987" lon="1.774867">
        <ele>792.048</ele>
        <time>2016-01-31T13:36:00Z</time>
      </trkpt>
      <trkpt lat="41.608998" lon="1.774798">
        <ele>792.014</ele>
        <time>2016-01-31T13:36:04Z</time>
      </trkpt>
      <trkpt lat="41.609021" lon="1.774740">
        <ele>792.014</ele>
        <time>2016-01-31T13:36:08Z</time>
      </trkpt>
      <trkpt lat="41.609084" lon="1.774671">
        <ele>791.984</ele>
        <time>2016-01-31T13:36:16Z</time>
      </trkpt>
      <trkpt lat="41.609158" lon="1.774618">
        <ele>790.407</ele>
        <time>2016-01-31T13:36:22Z</time>
      </trkpt>
      <trkpt lat="41.609223" lon="1.774561">
        <ele>789.517</ele>
        <time>2016-01-31T13:36:28Z</time>
      </trkpt>
      <trkpt lat="41.609281" lon="1.774481">
        <ele>789.108</ele>
        <time>2016-01-31T13:36:36Z</time>
      </trkpt>
      <trkpt lat="41.609341" lon="1.774402">
        <ele>788.469</ele>
        <time>2016-01-31T13:36:43Z</time>
      </trkpt>
      <trkpt lat="41.609395" lon="1.774319">
        <ele>787.310</ele>
        <time>2016-01-31T13:36:49Z</time>
      </trkpt>
      <trkpt lat="41.609458" lon="1.774242">
        <ele>786.739</ele>
        <time>2016-01-31T13:36:54Z</time>
      </trkpt>
      <trkpt lat="41.609515" lon="1.774168">
        <ele>786.711</ele>
        <time>2016-01-31T13:37:00Z</time>
      </trkpt>
      <trkpt lat="41.609577" lon="1.774086">
        <ele>785.731</ele>
        <time>2016-01-31T13:37:06Z</time>
      </trkpt>
      <trkpt lat="41.609635" lon="1.774005">
        <ele>785.240</ele>
        <time>2016-01-31T13:37:12Z</time>
      </trkpt>
      <trkpt lat="41.609648" lon="1.773898">
        <ele>784.516</ele>
        <time>2016-01-31T13:37:19Z</time>
      </trkpt>
      <trkpt lat="41.609662" lon="1.773787">
        <ele>784.336</ele>
        <time>2016-01-31T13:37:25Z</time>
      </trkpt>
      <trkpt lat="41.609676" lon="1.773679">
        <ele>784.491</ele>
        <time>2016-01-31T13:37:31Z</time>
      </trkpt>
      <trkpt lat="41.609724" lon="1.773596">
        <ele>783.781</ele>
        <time>2016-01-31T13:37:37Z</time>
      </trkpt>
      <trkpt lat="41.609774" lon="1.773518">
        <ele>782.619</ele>
        <time>2016-01-31T13:37:43Z</time>
      </trkpt>
      <trkpt lat="41.609813" lon="1.773426">
        <ele>781.108</ele>
        <time>2016-01-31T13:37:50Z</time>
      </trkpt>
      <trkpt lat="41.609862" lon="1.773331">
        <ele>780.160</ele>
        <time>2016-01-31T13:37:56Z</time>
      </trkpt>
      <trkpt lat="41.609899" lon="1.773223">
        <ele>778.711</ele>
        <time>2016-01-31T13:38:03Z</time>
      </trkpt>
      <trkpt lat="41.609940" lon="1.773122">
        <ele>775.940</ele>
        <time>2016-01-31T13:38:10Z</time>
      </trkpt>
      <trkpt lat="41.609961" lon="1.773021">
        <ele>775.542</ele>
        <time>2016-01-31T13:38:16Z</time>
      </trkpt>
      <trkpt lat="41.609997" lon="1.772911">
        <ele>774.092</ele>
        <time>2016-01-31T13:38:22Z</time>
      </trkpt>
      <trkpt lat="41.610050" lon="1.772825">
        <ele>773.071</ele>
        <time>2016-01-31T13:38:29Z</time>
      </trkpt>
      <trkpt lat="41.610091" lon="1.772730">
        <ele>771.657</ele>
        <time>2016-01-31T13:38:36Z</time>
      </trkpt>
      <trkpt lat="41.610164" lon="1.772659">
        <ele>770.447</ele>
        <time>2016-01-31T13:38:42Z</time>
      </trkpt>
      <trkpt lat="41.610238" lon="1.772607">
        <ele>769.788</ele>
        <time>2016-01-31T13:38:48Z</time>
      </trkpt>
      <trkpt lat="41.610308" lon="1.772540">
        <ele>767.624</ele>
        <time>2016-01-31T13:38:55Z</time>
      </trkpt>
      <trkpt lat="41.610361" lon="1.772451">
        <ele>767.326</ele>
        <time>2016-01-31T13:39:02Z</time>
      </trkpt>
      <trkpt lat="41.610361" lon="1.772341">
        <ele>766.608</ele>
        <time>2016-01-31T13:39:10Z</time>
      </trkpt>
      <trkpt lat="41.610322" lon="1.772232">
        <ele>765.689</ele>
        <time>2016-01-31T13:39:18Z</time>
      </trkpt>
      <trkpt lat="41.610295" lon="1.772120">
        <ele>765.250</ele>
        <time>2016-01-31T13:39:24Z</time>
      </trkpt>
      <trkpt lat="41.610285" lon="1.772001">
        <ele>764.119</ele>
        <time>2016-01-31T13:39:30Z</time>
      </trkpt>
      <trkpt lat="41.610276" lon="1.771883">
        <ele>763.151</ele>
        <time>2016-01-31T13:39:37Z</time>
      </trkpt>
      <trkpt lat="41.610320" lon="1.771785">
        <ele>762.061</ele>
        <time>2016-01-31T13:39:43Z</time>
      </trkpt>
      <trkpt lat="41.610390" lon="1.771731">
        <ele>760.220</ele>
        <time>2016-01-31T13:39:49Z</time>
      </trkpt>
      <trkpt lat="41.610465" lon="1.771672">
        <ele>757.486</ele>
        <time>2016-01-31T13:39:56Z</time>
      </trkpt>
      <trkpt lat="41.610511" lon="1.771579">
        <ele>756.286</ele>
        <time>2016-01-31T13:40:03Z</time>
      </trkpt>
      <trkpt lat="41.610535" lon="1.771478">
        <ele>754.751</ele>
        <time>2016-01-31T13:40:10Z</time>
      </trkpt>
      <trkpt lat="41.610579" lon="1.771376">
        <ele>753.401</ele>
        <time>2016-01-31T13:40:16Z</time>
      </trkpt>
      <trkpt lat="41.610610" lon="1.771274">
        <ele>752.311</ele>
        <time>2016-01-31T13:40:22Z</time>
      </trkpt>
      <trkpt lat="41.610627" lon="1.771169">
        <ele>750.608</ele>
        <time>2016-01-31T13:40:28Z</time>
      </trkpt>
      <trkpt lat="41.610610" lon="1.771069">
        <ele>749.226</ele>
        <time>2016-01-31T13:40:35Z</time>
      </trkpt>
      <trkpt lat="41.610571" lon="1.770966">
        <ele>747.557</ele>
        <time>2016-01-31T13:40:41Z</time>
      </trkpt>
      <trkpt lat="41.610528" lon="1.770860">
        <ele>745.096</ele>
        <time>2016-01-31T13:40:48Z</time>
      </trkpt>
      <trkpt lat="41.610480" lon="1.770771">
        <ele>743.878</ele>
        <time>2016-01-31T13:40:54Z</time>
      </trkpt>
      <trkpt lat="41.610423" lon="1.770684">
        <ele>742.478</ele>
        <time>2016-01-31T13:41:01Z</time>
      </trkpt>
      <trkpt lat="41.610373" lon="1.770584">
        <ele>741.797</ele>
        <time>2016-01-31T13:41:07Z</time>
      </trkpt>
      <trkpt lat="41.610340" lon="1.770483">
        <ele>739.713</ele>
        <time>2016-01-31T13:41:15Z</time>
      </trkpt>
      <trkpt lat="41.610334" lon="1.770380">
        <ele>738.083</ele>
        <time>2016-01-31T13:41:21Z</time>
      </trkpt>
      <trkpt lat="41.610318" lon="1.770275">
        <ele>736.928</ele>
        <time>2016-01-31T13:41:27Z</time>
      </trkpt>
      <trkpt lat="41.610293" lon="1.770165">
        <ele>735.789</ele>
        <time>2016-01-31T13:41:33Z</time>
      </trkpt>
      <trkpt lat="41.610271" lon="1.770065">
        <ele>735.517</ele>
        <time>2016-01-31T13:41:38Z</time>
      </trkpt>
      <trkpt lat="41.610257" lon="1.769955">
        <ele>735.308</ele>
        <time>2016-01-31T13:41:43Z</time>
      </trkpt>
      <trkpt lat="41.610245" lon="1.769841">
        <ele>734.123</ele>
        <time>2016-01-31T13:41:50Z</time>
      </trkpt>
      <trkpt lat="41.610223" lon="1.769735">
        <ele>731.524</ele>
        <time>2016-01-31T13:41:58Z</time>
      </trkpt>
      <trkpt lat="41.610205" lon="1.769636">
        <ele>730.873</ele>
        <time>2016-01-31T13:42:03Z</time>
      </trkpt>
      <trkpt lat="41.610195" lon="1.769528">
        <ele>728.795</ele>
        <time>2016-01-31T13:42:11Z</time>
      </trkpt>
      <trkpt lat="41.610193" lon="1.769427">
        <ele>727.875</ele>
        <time>2016-01-31T13:42:17Z</time>
      </trkpt>
      <trkpt lat="41.610186" lon="1.769313">
        <ele>725.434</ele>
        <time>2016-01-31T13:42:23Z</time>
      </trkpt>
      <trkpt lat="41.610178" lon="1.769195">
        <ele>722.860</ele>
        <time>2016-01-31T13:42:31Z</time>
      </trkpt>
      <trkpt lat="41.610142" lon="1.769102">
        <ele>721.520</ele>
        <time>2016-01-31T13:42:36Z</time>
      </trkpt>
      <trkpt lat="41.610094" lon="1.769001">
        <ele>720.355</ele>
        <time>2016-01-31T13:42:42Z</time>
      </trkpt>
      <trkpt lat="41.610015" lon="1.768975">
        <ele>719.107</ele>
        <time>2016-01-31T13:42:49Z</time>
      </trkpt>
      <trkpt lat="41.609933" lon="1.768939">
        <ele>717.517</ele>
        <time>2016-01-31T13:42:57Z</time>
      </trkpt>
      <trkpt lat="41.609879" lon="1.768845">
        <ele>716.008</ele>
        <time>2016-01-31T13:43:04Z</time>
      </trkpt>
      <trkpt lat="41.609845" lon="1.768734">
        <ele>714.766</ele>
        <time>2016-01-31T13:43:10Z</time>
      </trkpt>
      <trkpt lat="41.609814" lon="1.768625">
        <ele>713.947</ele>
        <time>2016-01-31T13:43:16Z</time>
      </trkpt>
      <trkpt lat="41.609788" lon="1.768525">
        <ele>713.056</ele>
        <time>2016-01-31T13:43:22Z</time>
      </trkpt>
      <trkpt lat="41.609780" lon="1.768414">
        <ele>710.638</ele>
        <time>2016-01-31T13:43:29Z</time>
      </trkpt>
      <trkpt lat="41.609753" lon="1.768309">
        <ele>708.828</ele>
        <time>2016-01-31T13:43:37Z</time>
      </trkpt>
      <trkpt lat="41.609732" lon="1.768194">
        <ele>707.067</ele>
        <time>2016-01-31T13:43:45Z</time>
      </trkpt>
      <trkpt lat="41.609716" lon="1.768079">
        <ele>706.253</ele>
        <time>2016-01-31T13:43:52Z</time>
      </trkpt>
      <trkpt lat="41.609683" lon="1.767983">
        <ele>704.123</ele>
        <time>2016-01-31T13:44:43Z</time>
      </trkpt>
      <trkpt lat="41.609562" lon="1.767482">
        <ele>714.974</ele>
        <time>2013-12-21T07:56:00Z</time>
      </trkpt>
      <trkpt lat="41.609563" lon="1.767482">
        <ele>718.256</ele>
        <time>2013-12-21T07:56:01Z</time>
      </trkpt>
      <trkpt lat="41.609564" lon="1.767482">
        <ele>716.821</ele>
        <time>2013-12-21T07:56:02Z</time>
      </trkpt>
      <trkpt lat="41.609565" lon="1.767483">
        <ele>716.307</ele>
        <time>2013-12-21T07:56:04Z</time>
      </trkpt>
      <trkpt lat="41.609548" lon="1.767486">
        <ele>713.922</ele>
        <time>2013-12-21T07:56:15Z</time>
      </trkpt>
      <trkpt lat="41.609547" lon="1.767492">
        <ele>717.325</ele>
        <time>2013-12-21T07:56:18Z</time>
      </trkpt>
      <trkpt lat="41.609548" lon="1.767494">
        <ele>716.878</ele>
        <time>2013-12-21T07:56:19Z</time>
      </trkpt>
      <trkpt lat="41.609543" lon="1.767502">
        <ele>716.394</ele>
        <time>2013-12-21T07:56:36Z</time>
      </trkpt>
      <trkpt lat="41.609540" lon="1.767527">
        <ele>716.872</ele>
        <time>2013-12-21T07:56:46Z</time>
      </trkpt>
      <trkpt lat="41.609528" lon="1.767636">
        <ele>716.875</ele>
        <time>2013-12-21T07:56:56Z</time>
      </trkpt>
      <trkpt lat="41.609580" lon="1.767717">
        <ele>717.827</ele>
        <time>2013-12-21T07:57:07Z</time>
      </trkpt>
      <trkpt lat="41.609641" lon="1.767795">
        <ele>718.245</ele>
        <time>2013-12-21T07:57:17Z</time>
      </trkpt>
      <trkpt lat="41.609644" lon="1.767873">
        <ele>718.747</ele>
        <time>2013-12-21T07:57:28Z</time>
      </trkpt>
      <trkpt lat="41.609642" lon="1.767897">
        <ele>718.711</ele>
        <time>2013-12-21T07:57:33Z</time>
      </trkpt>
      <trkpt lat="41.609646" lon="1.767931">
        <ele>718.707</ele>
        <time>2013-12-21T07:57:35Z</time>
      </trkpt>
      <trkpt lat="41.609672" lon="1.768074">
        <ele>719.229</ele>
        <time>2013-12-21T07:57:47Z</time>
      </trkpt>
      <trkpt lat="41.609675" lon="1.768065">
        <ele>718.222</ele>
        <time>2013-12-21T07:57:56Z</time>
      </trkpt>
      <trkpt lat="41.609693" lon="1.768091">
        <ele>714.485</ele>
        <time>2013-12-21T07:58:14Z</time>
      </trkpt>
      <trkpt lat="41.609692" lon="1.768092">
        <ele>719.721</ele>
        <time>2013-12-21T07:58:15Z</time>
      </trkpt>
      <trkpt lat="41.609692" lon="1.768092">
        <ele>713.929</ele>
        <time>2013-12-21T07:58:18Z</time>
      </trkpt>
      <trkpt lat="41.609692" lon="1.768093">
        <ele>718.212</ele>
        <time>2013-12-21T07:58:19Z</time>
      </trkpt>
      <trkpt lat="41.609704" lon="1.768119">
        <ele>722.614</ele>
        <time>2013-12-21T07:58:26Z</time>
      </trkpt>
      <trkpt lat="41.609708" lon="1.768119">
        <ele>722.668</ele>
        <time>2013-12-21T07:58:27Z</time>
      </trkpt>
      <trkpt lat="41.609706" lon="1.768120">
        <ele>718.242</ele>
        <time>2013-12-21T07:58:28Z</time>
      </trkpt>
      <trkpt lat="41.609699" lon="1.768116">
        <ele>719.226</ele>
        <time>2013-12-21T07:58:29Z</time>
      </trkpt>
      <trkpt lat="41.609687" lon="1.768110">
        <ele>719.207</ele>
        <time>2013-12-21T07:58:30Z</time>
      </trkpt>
      <trkpt lat="41.609717" lon="1.768127">
        <ele>720.231</ele>
        <time>2013-12-21T07:58:38Z</time>
      </trkpt>
      <trkpt lat="41.609712" lon="1.768128">
        <ele>719.734</ele>
        <time>2013-12-21T07:58:47Z</time>
      </trkpt>
      <trkpt lat="41.609717" lon="1.768137">
        <ele>720.797</ele>
        <time>2013-12-21T07:58:59Z</time>
      </trkpt>
      <trkpt lat="41.609724" lon="1.768185">
        <ele>719.733</ele>
        <time>2013-12-21T07:59:14Z</time>
      </trkpt>
      <trkpt lat="41.609747" lon="1.768297">
        <ele>721.641</ele>
        <time>2013-12-21T07:59:24Z</time>
      </trkpt>
      <trkpt lat="41.609785" lon="1.768392">
        <ele>722.674</ele>
        <time>2013-12-21T07:59:34Z</time>
      </trkpt>
      <trkpt lat="41.609792" lon="1.768414">
        <ele>722.626</ele>
        <time>2013-12-21T07:59:36Z</time>
      </trkpt>
      <trkpt lat="41.609821" lon="1.768533">
        <ele>724.547</ele>
        <time>2013-12-21T07:59:47Z</time>
      </trkpt>
      <trkpt lat="41.609832" lon="1.768648">
        <ele>725.929</ele>
        <time>2013-12-21T07:59:58Z</time>
      </trkpt>
      <trkpt lat="41.609854" lon="1.768732">
        <ele>727.421</ele>
        <time>2013-12-21T08:00:08Z</time>
      </trkpt>
      <trkpt lat="41.609895" lon="1.768822">
        <ele>729.307</ele>
        <time>2013-12-21T08:00:19Z</time>
      </trkpt>
      <trkpt lat="41.609971" lon="1.768939">
        <ele>730.789</ele>
        <time>2013-12-21T08:00:31Z</time>
      </trkpt>
      <trkpt lat="41.610037" lon="1.768970">
        <ele>731.772</ele>
        <time>2013-12-21T08:00:42Z</time>
      </trkpt>
      <trkpt lat="41.610110" lon="1.768997">
        <ele>733.675</ele>
        <time>2013-12-21T08:00:52Z</time>
      </trkpt>
      <trkpt lat="41.610164" lon="1.769089">
        <ele>735.141</ele>
        <time>2013-12-21T08:01:02Z</time>
      </trkpt>
      <trkpt lat="41.610207" lon="1.769232">
        <ele>737.549</ele>
        <time>2013-12-21T08:01:16Z</time>
      </trkpt>
      <trkpt lat="41.610224" lon="1.769375">
        <ele>739.912</ele>
        <time>2013-12-21T08:01:30Z</time>
      </trkpt>
      <trkpt lat="41.610223" lon="1.769491">
        <ele>741.314</ele>
        <time>2013-12-21T08:01:41Z</time>
      </trkpt>
      <trkpt lat="41.610225" lon="1.769622">
        <ele>743.278</ele>
        <time>2013-12-21T08:01:54Z</time>
      </trkpt>
      <trkpt lat="41.610225" lon="1.769732">
        <ele>745.233</ele>
        <time>2013-12-21T08:02:04Z</time>
      </trkpt>
      <trkpt lat="41.610245" lon="1.769828">
        <ele>746.126</ele>
        <time>2013-12-21T08:02:15Z</time>
      </trkpt>
      <trkpt lat="41.610269" lon="1.769957">
        <ele>747.607</ele>
        <time>2013-12-21T08:02:26Z</time>
      </trkpt>
      <trkpt lat="41.610299" lon="1.770094">
        <ele>749.532</ele>
        <time>2013-12-21T08:02:38Z</time>
      </trkpt>
      <trkpt lat="41.610338" lon="1.770233">
        <ele>750.095</ele>
        <time>2013-12-21T08:02:49Z</time>
      </trkpt>
      <trkpt lat="41.610350" lon="1.770388">
        <ele>750.968</ele>
        <time>2013-12-21T08:03:01Z</time>
      </trkpt>
      <trkpt lat="41.610367" lon="1.770526">
        <ele>752.464</ele>
        <time>2013-12-21T08:03:12Z</time>
      </trkpt>
      <trkpt lat="41.610409" lon="1.770649">
        <ele>754.832</ele>
        <time>2013-12-21T08:03:25Z</time>
      </trkpt>
      <trkpt lat="41.610458" lon="1.770733">
        <ele>756.265</ele>
        <time>2013-12-21T08:03:34Z</time>
      </trkpt>
      <trkpt lat="41.610490" lon="1.770770">
        <ele>756.247</ele>
        <time>2013-12-21T08:03:38Z</time>
      </trkpt>
      <trkpt lat="41.610563" lon="1.770907">
        <ele>757.726</ele>
        <time>2013-12-21T08:03:51Z</time>
      </trkpt>
      <trkpt lat="41.610619" lon="1.771031">
        <ele>760.547</ele>
        <time>2013-12-21T08:04:04Z</time>
      </trkpt>
      <trkpt lat="41.610654" lon="1.771140">
        <ele>762.011</ele>
        <time>2013-12-21T08:04:14Z</time>
      </trkpt>
      <trkpt lat="41.610644" lon="1.771274">
        <ele>763.407</ele>
        <time>2013-12-21T08:04:25Z</time>
      </trkpt>
      <trkpt lat="41.610591" lon="1.771398">
        <ele>766.317</ele>
        <time>2013-12-21T08:04:38Z</time>
      </trkpt>
      <trkpt lat="41.610549" lon="1.771541">
        <ele>767.340</ele>
        <time>2013-12-21T08:04:51Z</time>
      </trkpt>
      <trkpt lat="41.610505" lon="1.771653">
        <ele>769.273</ele>
        <time>2013-12-21T08:05:02Z</time>
      </trkpt>
      <trkpt lat="41.610432" lon="1.771727">
        <ele>770.669</ele>
        <time>2013-12-21T08:05:12Z</time>
      </trkpt>
      <trkpt lat="41.610393" lon="1.771765">
        <ele>771.117</ele>
        <time>2013-12-21T08:05:18Z</time>
      </trkpt>
      <trkpt lat="41.610316" lon="1.771817">
        <ele>772.190</ele>
        <time>2013-12-21T08:05:28Z</time>
      </trkpt>
      <trkpt lat="41.610280" lon="1.771925">
        <ele>773.532</ele>
        <time>2013-12-21T08:05:39Z</time>
      </trkpt>
      <trkpt lat="41.610296" lon="1.772018">
        <ele>775.498</ele>
        <time>2013-12-21T08:05:48Z</time>
      </trkpt>
      <trkpt lat="41.610333" lon="1.772156">
        <ele>776.415</ele>
        <time>2013-12-21T08:06:01Z</time>
      </trkpt>
      <trkpt lat="41.610338" lon="1.772192">
        <ele>777.426</ele>
        <time>2013-12-21T08:06:05Z</time>
      </trkpt>
      <trkpt lat="41.610389" lon="1.772312">
        <ele>778.807</ele>
        <time>2013-12-21T08:06:16Z</time>
      </trkpt>
      <trkpt lat="41.610444" lon="1.772405">
        <ele>779.384</ele>
        <time>2013-12-21T08:06:28Z</time>
      </trkpt>
      <trkpt lat="41.610443" lon="1.772387">
        <ele>778.367</ele>
        <time>2013-12-21T08:06:50Z</time>
      </trkpt>
      <trkpt lat="41.610439" lon="1.772464">
        <ele>778.370</ele>
        <time>2013-12-21T08:08:06Z</time>
      </trkpt>
      <trkpt lat="41.610369" lon="1.772560">
        <ele>778.896</ele>
        <time>2013-12-21T08:08:17Z</time>
      </trkpt>
      <trkpt lat="41.610360" lon="1.772569">
        <ele>779.334</ele>
        <time>2013-12-21T08:08:18Z</time>
      </trkpt>
      <trkpt lat="41.610262" lon="1.772659">
        <ele>779.897</ele>
        <time>2013-12-21T08:08:30Z</time>
      </trkpt>
      <trkpt lat="41.610175" lon="1.772719">
        <ele>781.729</ele>
        <time>2013-12-21T08:08:42Z</time>
      </trkpt>
      <trkpt lat="41.610095" lon="1.772825">
        <ele>783.659</ele>
        <time>2013-12-21T08:08:54Z</time>
      </trkpt>
      <trkpt lat="41.610019" lon="1.772917">
        <ele>785.003</ele>
        <time>2013-12-21T08:09:05Z</time>
      </trkpt>
      <trkpt lat="41.609988" lon="1.772995">
        <ele>785.523</ele>
        <time>2013-12-21T08:09:12Z</time>
      </trkpt>
      <trkpt lat="41.609943" lon="1.773147">
        <ele>786.507</ele>
        <time>2013-12-21T08:09:24Z</time>
      </trkpt>
      <trkpt lat="41.609903" lon="1.773271">
        <ele>787.580</ele>
        <time>2013-12-21T08:09:35Z</time>
      </trkpt>
      <trkpt lat="41.609853" lon="1.773399">
        <ele>790.313</ele>
        <time>2013-12-21T08:09:48Z</time>
      </trkpt>
      <trkpt lat="41.609801" lon="1.773543">
        <ele>791.896</ele>
        <time>2013-12-21T08:10:02Z</time>
      </trkpt>
      <trkpt lat="41.609733" lon="1.773635">
        <ele>793.282</ele>
        <time>2013-12-21T08:10:14Z</time>
      </trkpt>
      <trkpt lat="41.609712" lon="1.773655">
        <ele>794.240</ele>
        <time>2013-12-21T08:10:17Z</time>
      </trkpt>
      <trkpt lat="41.609674" lon="1.773750">
        <ele>795.623</ele>
        <time>2013-12-21T08:10:28Z</time>
      </trkpt>
      <trkpt lat="41.609649" lon="1.773901">
        <ele>796.165</ele>
        <time>2013-12-21T08:10:40Z</time>
      </trkpt>
      <trkpt lat="41.609652" lon="1.773966">
        <ele>796.615</ele>
        <time>2013-12-21T08:10:53Z</time>
      </trkpt>
      <trkpt lat="41.609604" lon="1.774092">
        <ele>796.665</ele>
        <time>2013-12-21T08:11:05Z</time>
      </trkpt>
      <trkpt lat="41.609597" lon="1.774100">
        <ele>796.111</ele>
        <time>2013-12-21T08:11:06Z</time>
      </trkpt>
      <trkpt lat="41.609493" lon="1.774216">
        <ele>797.507</ele>
        <time>2013-12-21T08:11:19Z</time>
      </trkpt>
      <trkpt lat="41.609477" lon="1.774238">
        <ele>797.536</ele>
        <time>2013-12-21T08:11:21Z</time>
      </trkpt>
      <trkpt lat="41.609460" lon="1.774257">
        <ele>797.519</ele>
        <time>2013-12-21T08:11:23Z</time>
      </trkpt>
      <trkpt lat="41.609388" lon="1.774402">
        <ele>799.022</ele>
        <time>2013-12-21T08:11:36Z</time>
      </trkpt>
      <trkpt lat="41.609301" lon="1.774509">
        <ele>799.528</ele>
        <time>2013-12-21T08:11:48Z</time>
      </trkpt>
      <trkpt lat="41.609183" lon="1.774630">
        <ele>800.456</ele>
        <time>2013-12-21T08:12:02Z</time>
      </trkpt>
      <trkpt lat="41.609066" lon="1.774710">
        <ele>801.989</ele>
        <time>2013-12-21T08:12:16Z</time>
      </trkpt>
      <trkpt lat="41.609012" lon="1.774773">
        <ele>802.491</ele>
        <time>2013-12-21T08:12:24Z</time>
      </trkpt>
      <trkpt lat="41.608981" lon="1.774842">
        <ele>803.376</ele>
        <time>2013-12-21T08:12:30Z</time>
      </trkpt>
      <trkpt lat="41.608961" lon="1.774987">
        <ele>804.390</ele>
        <time>2013-12-21T08:12:43Z</time>
      </trkpt>
      <trkpt lat="41.608930" lon="1.775144">
        <ele>805.719</ele>
        <time>2013-12-21T08:12:55Z</time>
      </trkpt>
      <trkpt lat="41.608889" lon="1.775237">
        <ele>806.207</ele>
        <time>2013-12-21T08:13:03Z</time>
      </trkpt>
      <trkpt lat="41.608822" lon="1.775321">
        <ele>805.712</ele>
        <time>2013-12-21T08:13:13Z</time>
      </trkpt>
      <trkpt lat="41.608783" lon="1.775416">
        <ele>805.235</ele>
        <time>2013-12-21T08:13:20Z</time>
      </trkpt>
      <trkpt lat="41.608785" lon="1.775464">
        <ele>805.778</ele>
        <time>2013-12-21T08:13:23Z</time>
      </trkpt>
      <trkpt lat="41.608794" lon="1.775715">
        <ele>805.724</ele>
        <time>2013-12-21T08:13:38Z</time>
      </trkpt>
      <trkpt lat="41.608844" lon="1.775939">
        <ele>806.212</ele>
        <time>2013-12-21T08:13:53Z</time>
      </trkpt>
      <trkpt lat="41.608880" lon="1.776128">
        <ele>805.725</ele>
        <time>2013-12-21T08:14:06Z</time>
      </trkpt>
      <trkpt lat="41.608892" lon="1.776174">
        <ele>805.777</ele>
        <time>2013-12-21T08:14:09Z</time>
      </trkpt>
      <trkpt lat="41.608919" lon="1.776358">
        <ele>804.858</ele>
        <time>2013-12-21T08:14:21Z</time>
      </trkpt>
      <trkpt lat="41.608982" lon="1.776526">
        <ele>804.352</ele>
        <time>2013-12-21T08:14:34Z</time>
      </trkpt>
      <trkpt lat="41.609030" lon="1.776661">
        <ele>806.217</ele>
        <time>2013-12-21T08:14:45Z</time>
      </trkpt>
      <trkpt lat="41.609028" lon="1.776719">
        <ele>806.207</ele>
        <time>2013-12-21T08:15:17Z</time>
      </trkpt>
      <trkpt lat="41.609198" lon="1.776754">
        <ele>805.220</ele>
        <time>2013-12-21T08:16:12Z</time>
      </trkpt>
      <trkpt lat="41.609211" lon="1.776774">
        <ele>805.773</ele>
        <time>2013-12-21T08:16:14Z</time>
      </trkpt>
      <trkpt lat="41.609265" lon="1.777006">
        <ele>805.266</ele>
        <time>2013-12-21T08:16:27Z</time>
      </trkpt>
      <trkpt lat="41.609278" lon="1.777162">
        <ele>805.752</ele>
        <time>2013-12-21T08:16:41Z</time>
      </trkpt>
      <trkpt lat="41.609277" lon="1.777231">
        <ele>805.230</ele>
        <time>2013-12-21T08:16:45Z</time>
      </trkpt>
      <trkpt lat="41.609302" lon="1.777411">
        <ele>804.383</ele>
        <time>2013-12-21T08:16:56Z</time>
      </trkpt>
      <trkpt lat="41.609304" lon="1.777506">
        <ele>803.345</ele>
        <time>2013-12-21T08:17:05Z</time>
      </trkpt>
      <trkpt lat="41.609329" lon="1.777662">
        <ele>801.998</ele>
        <time>2013-12-21T08:17:17Z</time>
      </trkpt>
      <trkpt lat="41.609357" lon="1.777807">
        <ele>800.915</ele>
        <time>2013-12-21T08:17:29Z</time>
      </trkpt>
      <trkpt lat="41.609396" lon="1.777926">
        <ele>800.026</ele>
        <time>2013-12-21T08:17:40Z</time>
      </trkpt>
      <trkpt lat="41.609391" lon="1.778138">
        <ele>800.007</ele>
        <time>2013-12-21T08:17:55Z</time>
      </trkpt>
      <trkpt lat="41.609387" lon="1.778147">
        <ele>800.014</ele>
        <time>2013-12-21T08:17:56Z</time>
      </trkpt>
      <trkpt lat="41.609301" lon="1.778260">
        <ele>799.567</ele>
        <time>2013-12-21T08:18:10Z</time>
      </trkpt>
      <trkpt lat="41.609251" lon="1.778361">
        <ele>799.050</ele>
        <time>2013-12-21T08:18:19Z</time>
      </trkpt>
      <trkpt lat="41.609199" lon="1.778443">
        <ele>798.586</ele>
        <time>2013-12-21T08:18:26Z</time>
      </trkpt>
      <trkpt lat="41.609175" lon="1.778617">
        <ele>798.584</ele>
        <time>2013-12-21T08:18:39Z</time>
      </trkpt>
      <trkpt lat="41.609119" lon="1.778700">
        <ele>798.017</ele>
        <time>2013-12-21T08:18:47Z</time>
      </trkpt>
      <trkpt lat="41.609015" lon="1.778856">
        <ele>798.089</ele>
        <time>2013-12-21T08:19:01Z</time>
      </trkpt>
      <trkpt lat="41.608970" lon="1.778948">
        <ele>800.058</ele>
        <time>2013-12-21T08:19:12Z</time>
      </trkpt>
      <trkpt lat="41.608962" lon="1.778972">
        <ele>799.052</ele>
        <time>2013-12-21T08:19:14Z</time>
      </trkpt>
      <trkpt lat="41.608963" lon="1.779030">
        <ele>799.517</ele>
        <time>2013-12-21T08:19:19Z</time>
      </trkpt>
      <trkpt lat="41.608874" lon="1.779093">
        <ele>800.007</ele>
        <time>2013-12-21T08:19:32Z</time>
      </trkpt>
      <trkpt lat="41.608795" lon="1.779128">
        <ele>801.480</ele>
        <time>2013-12-21T08:19:43Z</time>
      </trkpt>
      <trkpt lat="41.608740" lon="1.779225">
        <ele>802.863</ele>
        <time>2013-12-21T08:19:56Z</time>
      </trkpt>
      <trkpt lat="41.608659" lon="1.779219">
        <ele>803.886</ele>
        <time>2013-12-21T08:20:07Z</time>
      </trkpt>
      <trkpt lat="41.608576" lon="1.779223">
        <ele>804.822</ele>
        <time>2013-12-21T08:20:19Z</time>
      </trkpt>
      <trkpt lat="41.608524" lon="1.779233">
        <ele>806.260</ele>
        <time>2013-12-21T08:20:28Z</time>
      </trkpt>
      <trkpt lat="41.608458" lon="1.779285">
        <ele>808.153</ele>
        <time>2013-12-21T08:20:42Z</time>
      </trkpt>
      <trkpt lat="41.608399" lon="1.779342">
        <ele>809.655</ele>
        <time>2013-12-21T08:20:53Z</time>
      </trkpt>
      <trkpt lat="41.608341" lon="1.779389">
        <ele>810.546</ele>
        <time>2013-12-21T08:21:02Z</time>
      </trkpt>
      <trkpt lat="41.608272" lon="1.779463">
        <ele>812.088</ele>
        <time>2013-12-21T08:21:16Z</time>
      </trkpt>
      <trkpt lat="41.608252" lon="1.779523">
        <ele>813.916</ele>
        <time>2013-12-21T08:21:30Z</time>
      </trkpt>
      <trkpt lat="41.608190" lon="1.779546">
        <ele>814.807</ele>
        <time>2013-12-21T08:21:41Z</time>
      </trkpt>
      <trkpt lat="41.608117" lon="1.779555">
        <ele>816.379</ele>
        <time>2013-12-21T08:21:51Z</time>
      </trkpt>
      <trkpt lat="41.608040" lon="1.779561">
        <ele>817.792</ele>
        <time>2013-12-21T08:22:02Z</time>
      </trkpt>
      <trkpt lat="41.607986" lon="1.779601">
        <ele>819.775</ele>
        <time>2013-12-21T08:22:14Z</time>
      </trkpt>
      <trkpt lat="41.607948" lon="1.779660">
        <ele>821.651</ele>
        <time>2013-12-21T08:22:28Z</time>
      </trkpt>
      <trkpt lat="41.607880" lon="1.779701">
        <ele>823.589</ele>
        <time>2013-12-21T08:22:40Z</time>
      </trkpt>
      <trkpt lat="41.607825" lon="1.779719">
        <ele>824.032</ele>
        <time>2013-12-21T08:22:51Z</time>
      </trkpt>
      <trkpt lat="41.607753" lon="1.779715">
        <ele>825.974</ele>
        <time>2013-12-21T08:23:05Z</time>
      </trkpt>
      <trkpt lat="41.607687" lon="1.779689">
        <ele>826.932</ele>
        <time>2013-12-21T08:23:18Z</time>
      </trkpt>
      <trkpt lat="41.607615" lon="1.779649">
        <ele>828.392</ele>
        <time>2013-12-21T08:23:30Z</time>
      </trkpt>
      <trkpt lat="41.607536" lon="1.779638">
        <ele>829.311</ele>
        <time>2013-12-21T08:23:42Z</time>
      </trkpt>
      <trkpt lat="41.607437" lon="1.779640">
        <ele>829.807</ele>
        <time>2013-12-21T08:23:55Z</time>
      </trkpt>
      <trkpt lat="41.607398" lon="1.779631">
        <ele>829.858</ele>
        <time>2013-12-21T08:23:59Z</time>
      </trkpt>
      <trkpt lat="41.607316" lon="1.779697">
        <ele>830.771</ele>
        <time>2013-12-21T08:24:11Z</time>
      </trkpt>
      <trkpt lat="41.607228" lon="1.779728">
        <ele>831.264</ele>
        <time>2013-12-21T08:24:23Z</time>
      </trkpt>
      <trkpt lat="41.607147" lon="1.779783">
        <ele>830.280</ele>
        <time>2013-12-21T08:24:34Z</time>
      </trkpt>
      <trkpt lat="41.607012" lon="1.779780">
        <ele>831.248</ele>
        <time>2013-12-21T08:24:48Z</time>
      </trkpt>
      <trkpt lat="41.606947" lon="1.779844">
        <ele>831.731</ele>
        <time>2013-12-21T08:24:59Z</time>
      </trkpt>
      <trkpt lat="41.606869" lon="1.779905">
        <ele>832.643</ele>
        <time>2013-12-21T08:25:11Z</time>
      </trkpt>
      <trkpt lat="41.606793" lon="1.779964">
        <ele>833.184</ele>
        <time>2013-12-21T08:25:22Z</time>
      </trkpt>
      <trkpt lat="41.606664" lon="1.780004">
        <ele>833.607</ele>
        <time>2013-12-21T08:25:35Z</time>
      </trkpt>
      <trkpt lat="41.606626" lon="1.779980">
        <ele>833.117</ele>
        <time>2013-12-21T08:25:39Z</time>
      </trkpt>
      <trkpt lat="41.606552" lon="1.779878">
        <ele>833.107</ele>
        <time>2013-12-21T08:25:50Z</time>
      </trkpt>
      <trkpt lat="41.606463" lon="1.779795">
        <ele>834.673</ele>
        <time>2013-12-21T08:26:02Z</time>
      </trkpt>
      <trkpt lat="41.606379" lon="1.779764">
        <ele>837.596</ele>
        <time>2013-12-21T08:26:15Z</time>
      </trkpt>
      <trkpt lat="41.606265" lon="1.779794">
        <ele>837.059</ele>
        <time>2013-12-21T08:26:29Z</time>
      </trkpt>
      <trkpt lat="41.606198" lon="1.779835">
        <ele>838.475</ele>
        <time>2013-12-21T08:26:40Z</time>
      </trkpt>
      <trkpt lat="41.606154" lon="1.779920">
        <ele>840.383</ele>
        <time>2013-12-21T08:26:54Z</time>
      </trkpt>
      <trkpt lat="41.606109" lon="1.779983">
        <ele>842.746</ele>
        <time>2013-12-21T08:27:06Z</time>
      </trkpt>
      <trkpt lat="41.606066" lon="1.780058">
        <ele>843.768</ele>
        <time>2013-12-21T08:27:17Z</time>
      </trkpt>
      <trkpt lat="41.606036" lon="1.780098">
        <ele>844.755</ele>
        <time>2013-12-21T08:27:28Z</time>
      </trkpt>
      <trkpt lat="41.606030" lon="1.780149">
        <ele>847.107</ele>
        <time>2013-12-21T08:27:39Z</time>
      </trkpt>
      <trkpt lat="41.605977" lon="1.780198">
        <ele>848.517</ele>
        <time>2013-12-21T08:27:50Z</time>
      </trkpt>
      <trkpt lat="41.605965" lon="1.780265">
        <ele>849.507</ele>
        <time>2013-12-21T08:28:00Z</time>
      </trkpt>
      <trkpt lat="41.605952" lon="1.780332">
        <ele>850.460</ele>
        <time>2013-12-21T08:28:10Z</time>
      </trkpt>
      <trkpt lat="41.605918" lon="1.780415">
        <ele>852.393</ele>
        <time>2013-12-21T08:28:22Z</time>
      </trkpt>
      <trkpt lat="41.605863" lon="1.780446">
        <ele>853.376</ele>
        <time>2013-12-21T08:28:33Z</time>
      </trkpt>
      <trkpt lat="41.605802" lon="1.780506">
        <ele>854.832</ele>
        <time>2013-12-21T08:28:46Z</time>
      </trkpt>
      <trkpt lat="41.605773" lon="1.780558">
        <ele>855.760</ele>
        <time>2013-12-21T08:28:57Z</time>
      </trkpt>
      <trkpt lat="41.605741" lon="1.780591">
        <ele>857.683</ele>
        <time>2013-12-21T08:29:08Z</time>
      </trkpt>
      <trkpt lat="41.605703" lon="1.780615">
        <ele>858.675</ele>
        <time>2013-12-21T08:29:18Z</time>
      </trkpt>
      <trkpt lat="41.605658" lon="1.780641">
        <ele>860.519</ele>
        <time>2013-12-21T08:29:28Z</time>
      </trkpt>
      <trkpt lat="41.605632" lon="1.780688">
        <ele>862.009</ele>
        <time>2013-12-21T08:29:39Z</time>
      </trkpt>
      <trkpt lat="41.605625" lon="1.780741">
        <ele>864.419</ele>
        <time>2013-12-21T08:29:49Z</time>
      </trkpt>
      <trkpt lat="41.605606" lon="1.780778">
        <ele>865.307</ele>
        <time>2013-12-21T08:29:58Z</time>
      </trkpt>
      <trkpt lat="41.605601" lon="1.780803">
        <ele>865.346</ele>
        <time>2013-12-21T08:30:07Z</time>
      </trkpt>
      <trkpt lat="41.605621" lon="1.780832">
        <ele>866.879</ele>
        <time>2013-12-21T08:30:20Z</time>
      </trkpt>
      <trkpt lat="41.605611" lon="1.780839">
        <ele>867.782</ele>
        <time>2013-12-21T08:30:33Z</time>
      </trkpt>
      <trkpt lat="41.605644" lon="1.780874">
        <ele>869.788</ele>
        <time>2013-12-21T08:30:44Z</time>
      </trkpt>
      <trkpt lat="41.605620" lon="1.780912">
        <ele>871.666</ele>
        <time>2013-12-21T08:30:55Z</time>
      </trkpt>
      <trkpt lat="41.605606" lon="1.780931">
        <ele>873.529</ele>
        <time>2013-12-21T08:31:07Z</time>
      </trkpt>
      <trkpt lat="41.605627" lon="1.780920">
        <ele>874.941</ele>
        <time>2013-12-21T08:31:19Z</time>
      </trkpt>
      <trkpt lat="41.605622" lon="1.780979">
        <ele>877.355</ele>
        <time>2013-12-21T08:31:28Z</time>
      </trkpt>
      <trkpt lat="41.605620" lon="1.781041">
        <ele>878.807</ele>
        <time>2013-12-21T08:31:41Z</time>
      </trkpt>
      <trkpt lat="41.605611" lon="1.781053">
        <ele>880.717</ele>
        <time>2013-12-21T08:31:52Z</time>
      </trkpt>
      <trkpt lat="41.605630" lon="1.781063">
        <ele>881.707</ele>
        <time>2013-12-21T08:32:01Z</time>
      </trkpt>
      <trkpt lat="41.605641" lon="1.781143">
        <ele>883.680</ele>
        <time>2013-12-21T08:32:11Z</time>
      </trkpt>
      <trkpt lat="41.605684" lon="1.781145">
        <ele>883.143</ele>
        <time>2013-12-21T08:32:24Z</time>
      </trkpt>
      <trkpt lat="41.605691" lon="1.781120">
        <ele>883.626</ele>
        <time>2013-12-21T08:32:38Z</time>
      </trkpt>
      <trkpt lat="41.605704" lon="1.781118">
        <ele>884.532</ele>
        <time>2013-12-21T08:32:50Z</time>
      </trkpt>
      <trkpt lat="41.605744" lon="1.781119">
        <ele>885.580</ele>
        <time>2013-12-21T08:33:03Z</time>
      </trkpt>
      <trkpt lat="41.605744" lon="1.781124">
        <ele>885.543</ele>
        <time>2013-12-21T08:33:19Z</time>
      </trkpt>
      <trkpt lat="41.605721" lon="1.781094">
        <ele>886.015</ele>
        <time>2013-12-21T08:33:42Z</time>
      </trkpt>
      <trkpt lat="41.605731" lon="1.781104">
        <ele>885.551</ele>
        <time>2013-12-21T08:34:02Z</time>
      </trkpt>
      <trkpt lat="41.605743" lon="1.781130">
        <ele>885.501</ele>
        <time>2013-12-21T08:34:20Z</time>
      </trkpt>
      <trkpt lat="41.605738" lon="1.781131">
        <ele>886.511</ele>
        <time>2013-12-21T08:34:28Z</time>
      </trkpt>
      <trkpt lat="41.605752" lon="1.781116">
        <ele>887.007</ele>
        <time>2013-12-21T08:34:37Z</time>
      </trkpt>
      <trkpt lat="41.605801" lon="1.781102">
        <ele>889.470</ele>
        <time>2013-12-21T08:34:51Z</time>
      </trkpt>
      <trkpt lat="41.605808" lon="1.781074">
        <ele>891.343</ele>
        <time>2013-12-21T08:34:55Z</time>
      </trkpt>
      <trkpt lat="41.605806" lon="1.781029">
        <ele>893.786</ele>
        <time>2013-12-21T08:35:06Z</time>
      </trkpt>
      <trkpt lat="41.605821" lon="1.780996">
        <ele>894.282</ele>
        <time>2013-12-21T08:35:15Z</time>
      </trkpt>
      <trkpt lat="41.605841" lon="1.780965">
        <ele>896.110</ele>
        <time>2013-12-21T08:35:24Z</time>
      </trkpt>
      <trkpt lat="41.605909" lon="1.780986">
        <ele>897.063</ele>
        <time>2013-12-21T08:35:34Z</time>
      </trkpt>
      <trkpt lat="41.605937" lon="1.780992">
        <ele>899.065</ele>
        <time>2013-12-21T08:35:45Z</time>
      </trkpt>
      <trkpt lat="41.605932" lon="1.780978">
        <ele>898.547</ele>
        <time>2013-12-21T08:35:57Z</time>
      </trkpt>
      <trkpt lat="41.605920" lon="1.780974">
        <ele>899.929</ele>
        <time>2013-12-21T08:36:09Z</time>
      </trkpt>
      <trkpt lat="41.605926" lon="1.780943">
        <ele>901.421</ele>
        <time>2013-12-21T08:36:20Z</time>
      </trkpt>
      <trkpt lat="41.605939" lon="1.780935">
        <ele>902.307</ele>
        <time>2013-12-21T08:36:33Z</time>
      </trkpt>
      <trkpt lat="41.605940" lon="1.780900">
        <ele>903.369</ele>
        <time>2013-12-21T08:36:47Z</time>
      </trkpt>
      <trkpt lat="41.605979" lon="1.780887">
        <ele>906.212</ele>
        <time>2013-12-21T08:36:54Z</time>
      </trkpt>
      <trkpt lat="41.606032" lon="1.780918">
        <ele>906.215</ele>
        <time>2013-12-21T08:37:05Z</time>
      </trkpt>
      <trkpt lat="41.606052" lon="1.780946">
        <ele>906.711</ele>
        <time>2013-12-21T08:37:11Z</time>
      </trkpt>
      <trkpt lat="41.606151" lon="1.781044">
        <ele>904.749</ele>
        <time>2013-12-21T08:37:23Z</time>
      </trkpt>
      <trkpt lat="41.606160" lon="1.781042">
        <ele>904.752</ele>
        <time>2013-12-21T08:37:24Z</time>
      </trkpt>
      <trkpt lat="41.606170" lon="1.780970">
        <ele>907.694</ele>
        <time>2013-12-21T08:37:36Z</time>
      </trkpt>
      <trkpt lat="41.606216" lon="1.780957">
        <ele>908.611</ele>
        <time>2013-12-21T08:37:46Z</time>
      </trkpt>
      <trkpt lat="41.606283" lon="1.780977">
        <ele>909.521</ele>
        <time>2013-12-21T08:37:56Z</time>
      </trkpt>
      <trkpt lat="41.606330" lon="1.780955">
        <ele>911.503</ele>
        <time>2013-12-21T08:38:08Z</time>
      </trkpt>
      <trkpt lat="41.606404" lon="1.780972">
        <ele>912.407</ele>
        <time>2013-12-21T08:38:20Z</time>
      </trkpt>
      <trkpt lat="41.606468" lon="1.781036">
        <ele>912.996</ele>
        <time>2013-12-21T08:38:30Z</time>
      </trkpt>
      <trkpt lat="41.606536" lon="1.781047">
        <ele>913.979</ele>
        <time>2013-12-21T08:38:41Z</time>
      </trkpt>
      <trkpt lat="41.606595" lon="1.781092">
        <ele>915.392</ele>
        <time>2013-12-21T08:38:54Z</time>
      </trkpt>
      <trkpt lat="41.606626" lon="1.781091">
        <ele>916.328</ele>
        <time>2013-12-21T08:39:05Z</time>
      </trkpt>
      <trkpt lat="41.606658" lon="1.781106">
        <ele>918.286</ele>
        <time>2013-12-21T08:39:15Z</time>
      </trkpt>
      <trkpt lat="41.606695" lon="1.781116">
        <ele>919.219</ele>
        <time>2013-12-21T08:39:26Z</time>
      </trkpt>
      <trkpt lat="41.606724" lon="1.781114">
        <ele>921.641</ele>
        <time>2013-12-21T08:39:39Z</time>
      </trkpt>
      <trkpt lat="41.606744" lon="1.781037">
        <ele>924.028</ele>
        <time>2013-12-21T08:39:50Z</time>
      </trkpt>
      <trkpt lat="41.606782" lon="1.781081">
        <ele>925.989</ele>
        <time>2013-12-21T08:39:59Z</time>
      </trkpt>
      <trkpt lat="41.606833" lon="1.781169">
        <ele>927.817</ele>
        <time>2013-12-21T08:40:10Z</time>
      </trkpt>
      <trkpt lat="41.606877" lon="1.781180">
        <ele>930.207</ele>
        <time>2013-12-21T08:40:20Z</time>
      </trkpt>
      <trkpt lat="41.606904" lon="1.781184">
        <ele>931.217</ele>
        <time>2013-12-21T08:40:28Z</time>
      </trkpt>
      <trkpt lat="41.606957" lon="1.781203">
        <ele>932.650</ele>
        <time>2013-12-21T08:40:41Z</time>
      </trkpt>
      <trkpt lat="41.606959" lon="1.781158">
        <ele>934.543</ele>
        <time>2013-12-21T08:40:49Z</time>
      </trkpt>
      <trkpt lat="41.606947" lon="1.781053">
        <ele>936.549</ele>
        <time>2013-12-21T08:41:01Z</time>
      </trkpt>
      <trkpt lat="41.606961" lon="1.780990">
        <ele>936.967</ele>
        <time>2013-12-21T08:41:11Z</time>
      </trkpt>
      <trkpt lat="41.607009" lon="1.781000">
        <ele>940.810</ele>
        <time>2013-12-21T08:41:19Z</time>
      </trkpt>
      <trkpt lat="41.607015" lon="1.781003">
        <ele>940.832</ele>
        <time>2013-12-21T08:41:20Z</time>
      </trkpt>
      <trkpt lat="41.607061" lon="1.781042">
        <ele>941.874</ele>
        <time>2013-12-21T08:41:32Z</time>
      </trkpt>
      <trkpt lat="41.607059" lon="1.781116">
        <ele>940.856</ele>
        <time>2013-12-21T08:41:48Z</time>
      </trkpt>
      <trkpt lat="41.607100" lon="1.781194">
        <ele>940.321</ele>
        <time>2013-12-21T08:42:01Z</time>
      </trkpt>
      <trkpt lat="41.607150" lon="1.781219">
        <ele>943.207</ele>
        <time>2013-12-21T08:42:11Z</time>
      </trkpt>
      <trkpt lat="41.607188" lon="1.781229">
        <ele>944.232</ele>
        <time>2013-12-21T08:42:25Z</time>
      </trkpt>
      <trkpt lat="41.607200" lon="1.781229">
        <ele>945.655</ele>
        <time>2013-12-21T08:42:40Z</time>
      </trkpt>
      <trkpt lat="41.607208" lon="1.781208">
        <ele>948.048</ele>
        <time>2013-12-21T08:42:53Z</time>
      </trkpt>
      <trkpt lat="41.607200" lon="1.781236">
        <ele>948.574</ele>
        <time>2013-12-21T08:43:10Z</time>
      </trkpt>
      <trkpt lat="41.607216" lon="1.781239">
        <ele>949.952</ele>
        <time>2013-12-21T08:43:22Z</time>
      </trkpt>
      <trkpt lat="41.607228" lon="1.781273">
        <ele>951.465</ele>
        <time>2013-12-21T08:43:31Z</time>
      </trkpt>
      <trkpt lat="41.607261" lon="1.781347">
        <ele>954.777</ele>
        <time>2013-12-21T08:43:41Z</time>
      </trkpt>
      <trkpt lat="41.607261" lon="1.781336">
        <ele>955.721</ele>
        <time>2013-12-21T08:43:50Z</time>
      </trkpt>
      <trkpt lat="41.607266" lon="1.781368">
        <ele>956.241</ele>
        <time>2013-12-21T08:44:02Z</time>
      </trkpt>
      <trkpt lat="41.607320" lon="1.781359">
        <ele>956.205</ele>
        <time>2013-12-21T08:44:12Z</time>
      </trkpt>
      <trkpt lat="41.607393" lon="1.781370">
        <ele>958.107</ele>
        <time>2013-12-21T08:44:24Z</time>
      </trkpt>
      <trkpt lat="41.607453" lon="1.781346">
        <ele>958.617</ele>
        <time>2013-12-21T08:44:36Z</time>
      </trkpt>
      <trkpt lat="41.607453" lon="1.781338">
        <ele>958.170</ele>
        <time>2013-12-21T08:44:48Z</time>
      </trkpt>
      <trkpt lat="41.607453" lon="1.781304">
        <ele>958.643</ele>
        <time>2013-12-21T08:45:11Z</time>
      </trkpt>
      <trkpt lat="41.607467" lon="1.781341">
        <ele>957.619</ele>
        <time>2013-12-21T08:45:31Z</time>
      </trkpt>
      <trkpt lat="41.607495" lon="1.781360">
        <ele>956.257</ele>
        <time>2013-12-21T08:45:43Z</time>
      </trkpt>
      <trkpt lat="41.607499" lon="1.781349">
        <ele>954.710</ele>
        <time>2013-12-21T08:46:00Z</time>
      </trkpt>
      <trkpt lat="41.607500" lon="1.781349">
        <ele>952.352</ele>
        <time>2013-12-21T08:46:12Z</time>
      </trkpt>
      <trkpt lat="41.607518" lon="1.781358">
        <ele>951.461</ele>
        <time>2013-12-21T08:46:23Z</time>
      </trkpt>
      <trkpt lat="41.607508" lon="1.781357">
        <ele>950.421</ele>
        <time>2013-12-21T08:46:37Z</time>
      </trkpt>
      <trkpt lat="41.607510" lon="1.781365">
        <ele>950.413</ele>
        <time>2013-12-21T08:46:52Z</time>
      </trkpt>
      <trkpt lat="41.607513" lon="1.781404">
        <ele>949.007</ele>
        <time>2013-12-21T08:47:03Z</time>
      </trkpt>
      <trkpt lat="41.607545" lon="1.781445">
        <ele>945.121</ele>
        <time>2013-12-21T08:47:14Z</time>
      </trkpt>
      <trkpt lat="41.607539" lon="1.781530">
        <ele>944.274</ele>
        <time>2013-12-21T08:47:28Z</time>
      </trkpt>
      <trkpt lat="41.607582" lon="1.781563">
        <ele>944.277</ele>
        <time>2013-12-21T08:47:42Z</time>
      </trkpt>
      <trkpt lat="41.607604" lon="1.781588">
        <ele>946.123</ele>
        <time>2013-12-21T08:47:58Z</time>
      </trkpt>
      <trkpt lat="41.607625" lon="1.781587">
        <ele>946.171</ele>
        <time>2013-12-21T08:48:08Z</time>
      </trkpt>
      <trkpt lat="41.607650" lon="1.781556">
        <ele>946.184</ele>
        <time>2013-12-21T08:48:24Z</time>
      </trkpt>
      <trkpt lat="41.607667" lon="1.781586">
        <ele>948.026</ele>
        <time>2013-12-21T08:48:33Z</time>
      </trkpt>
      <trkpt lat="41.607659" lon="1.781586">
        <ele>949.924</ele>
        <time>2013-12-21T08:48:41Z</time>
      </trkpt>
      <trkpt lat="41.607726" lon="1.781639">
        <ele>953.304</ele>
        <time>2013-12-21T08:48:56Z</time>
      </trkpt>
      <trkpt lat="41.607746" lon="1.781669">
        <ele>955.214</ele>
        <time>2013-12-21T08:49:04Z</time>
      </trkpt>
      <trkpt lat="41.607746" lon="1.781699">
        <ele>959.507</ele>
        <time>2013-12-21T08:52:10Z</time>
      </trkpt>
      <trkpt lat="41.607752" lon="1.781720">
        <ele>960.577</ele>
        <time>2013-12-21T08:52:25Z</time>
      </trkpt>
      <trkpt lat="41.607741" lon="1.781783">
        <ele>962.960</ele>
        <time>2013-12-21T08:52:55Z</time>
      </trkpt>
      <trkpt lat="41.607709" lon="1.781787">
        <ele>964.833</ele>
        <time>2013-12-21T08:53:01Z</time>
      </trkpt>
      <trkpt lat="41.607677" lon="1.781809">
        <ele>966.719</ele>
        <time>2013-12-21T08:53:08Z</time>
      </trkpt>
      <trkpt lat="41.607646" lon="1.781843">
        <ele>968.277</ele>
        <time>2013-12-21T08:53:16Z</time>
      </trkpt>
      <trkpt lat="41.607683" lon="1.781867">
        <ele>971.510</ele>
        <time>2013-12-21T08:53:26Z</time>
      </trkpt>
      <trkpt lat="41.607703" lon="1.781888">
        <ele>973.542</ele>
        <time>2013-12-21T08:53:37Z</time>
      </trkpt>
      <trkpt lat="41.607690" lon="1.781895">
        <ele>973.526</ele>
        <time>2013-12-21T08:53:52Z</time>
      </trkpt>
      <trkpt lat="41.607691" lon="1.781906">
        <ele>973.047</ele>
        <time>2013-12-21T08:54:17Z</time>
      </trkpt>
      <trkpt lat="41.607696" lon="1.781968">
        <ele>974.411</ele>
        <time>2013-12-21T08:54:28Z</time>
      </trkpt>
      <trkpt lat="41.607712" lon="1.781959">
        <ele>975.407</ele>
        <time>2013-12-21T08:54:46Z</time>
      </trkpt>
      <trkpt lat="41.607719" lon="1.781972">
        <ele>976.487</ele>
        <time>2013-12-21T08:55:17Z</time>
      </trkpt>
      <trkpt lat="41.607766" lon="1.782017">
        <ele>976.810</ele>
        <time>2013-12-21T08:55:29Z</time>
      </trkpt>
      <trkpt lat="41.607823" lon="1.782034">
        <ele>979.793</ele>
        <time>2013-12-21T08:55:43Z</time>
      </trkpt>
      <trkpt lat="41.607846" lon="1.782039">
        <ele>981.249</ele>
        <time>2013-12-21T08:56:00Z</time>
      </trkpt>
      <trkpt lat="41.607865" lon="1.782058">
        <ele>983.127</ele>
        <time>2013-12-21T08:56:14Z</time>
      </trkpt>
      <trkpt lat="41.607882" lon="1.782066">
        <ele>985.510</ele>
        <time>2013-12-21T08:56:29Z</time>
      </trkpt>
      <trkpt lat="41.607894" lon="1.782090">
        <ele>987.412</ele>
        <time>2013-12-21T08:56:41Z</time>
      </trkpt>
      <trkpt lat="41.607935" lon="1.782098">
        <ele>990.892</ele>
        <time>2013-12-21T08:56:58Z</time>
      </trkpt>
      <trkpt lat="41.607977" lon="1.782083">
        <ele>992.773</ele>
        <time>2013-12-21T08:57:10Z</time>
      </trkpt>
      <trkpt lat="41.607977" lon="1.782069">
        <ele>993.220</ele>
        <time>2013-12-21T08:57:29Z</time>
      </trkpt>
      <trkpt lat="41.607976" lon="1.782115">
        <ele>994.607</ele>
        <time>2013-12-21T08:57:38Z</time>
      </trkpt>
      <trkpt lat="41.608014" lon="1.782173">
        <ele>996.184</ele>
        <time>2013-12-21T08:57:51Z</time>
      </trkpt>
      <trkpt lat="41.608096" lon="1.782120">
        <ele>997.037</ele>
        <time>2013-12-21T08:58:01Z</time>
      </trkpt>
      <trkpt lat="41.608105" lon="1.782112">
        <ele>996.530</ele>
        <time>2013-12-21T08:58:02Z</time>
      </trkpt>
      <trkpt lat="41.608146" lon="1.782092">
        <ele>996.526</ele>
        <time>2013-12-21T08:58:14Z</time>
      </trkpt>
      <trkpt lat="41.608142" lon="1.782096">
        <ele>997.044</ele>
        <time>2013-12-21T08:58:26Z</time>
      </trkpt>
      <trkpt lat="41.608152" lon="1.782092">
        <ele>997.037</ele>
        <time>2013-12-21T08:58:39Z</time>
      </trkpt>
      <trkpt lat="41.608165" lon="1.782070">
        <ele>996.159</ele>
        <time>2013-12-21T08:58:42Z</time>
      </trkpt>
      <trkpt lat="41.608211" lon="1.782046">
        <ele>992.785</ele>
        <time>2013-12-21T08:58:51Z</time>
      </trkpt>
      <trkpt lat="41.608231" lon="1.782058">
        <ele>992.789</ele>
        <time>2013-12-21T08:58:54Z</time>
      </trkpt>
      <trkpt lat="41.608300" lon="1.782020">
        <ele>991.717</ele>
        <time>2013-12-21T08:59:16Z</time>
      </trkpt>
      <trkpt lat="41.608306" lon="1.782006">
        <ele>991.707</ele>
        <time>2013-12-21T08:59:26Z</time>
      </trkpt>
      <trkpt lat="41.608362" lon="1.781989">
        <ele>992.783</ele>
        <time>2013-12-21T08:59:35Z</time>
      </trkpt>
      <trkpt lat="41.608386" lon="1.782027">
        <ele>992.726</ele>
        <time>2013-12-21T09:00:19Z</time>
      </trkpt>
      <trkpt lat="41.608410" lon="1.782023">
        <ele>993.719</ele>
        <time>2013-12-21T09:00:55Z</time>
      </trkpt>
      <trkpt lat="41.608419" lon="1.782060">
        <ele>993.775</ele>
        <time>2013-12-21T09:01:09Z</time>
      </trkpt>
      <trkpt lat="41.608466" lon="1.782102">
        <ele>992.223</ele>
        <time>2013-12-21T09:01:17Z</time>
      </trkpt>
      <trkpt lat="41.608509" lon="1.782103">
        <ele>992.756</ele>
        <time>2013-12-21T09:01:27Z</time>
      </trkpt>
      <trkpt lat="41.608545" lon="1.782091">
        <ele>994.668</ele>
        <time>2013-12-21T09:01:38Z</time>
      </trkpt>
      <trkpt lat="41.608581" lon="1.782071">
        <ele>997.022</ele>
        <time>2013-12-21T09:01:51Z</time>
      </trkpt>
      <trkpt lat="41.608590" lon="1.782085">
        <ele>996.162</ele>
        <time>2013-12-21T09:02:14Z</time>
      </trkpt>
      <trkpt lat="41.608641" lon="1.782132">
        <ele>995.108</ele>
        <time>2013-12-21T09:02:25Z</time>
      </trkpt>
      <trkpt lat="41.608668" lon="1.782112">
        <ele>996.107</ele>
        <time>2013-12-21T09:02:36Z</time>
      </trkpt>
      <trkpt lat="41.608756" lon="1.782125">
        <ele>997.087</ele>
        <time>2013-12-21T09:02:50Z</time>
      </trkpt>
      <trkpt lat="41.608798" lon="1.782277">
        <ele>997.060</ele>
        <time>2013-12-21T09:03:50Z</time>
      </trkpt>
      <trkpt lat="41.608798" lon="1.782278">
        <ele>997.093</ele>
        <time>2013-12-21T09:04:50Z</time>
      </trkpt>
      <trkpt lat="41.608834" lon="1.782446">
        <ele>997.289</ele>
        <time>2013-12-21T09:05:50Z</time>
      </trkpt>
      <trkpt lat="41.608917" lon="1.782527">
        <ele>997.537</ele>
        <time>2013-12-21T09:06:50Z</time>
      </trkpt>
    </trkseg>
  </trk>
</gpx>
